M I D A S
Marine Information and Data Acquisition System
Tripno 1165 of the Zeeleeuw from 2006-09-06 05:03:03 to 2006-09-06 16:12:47
Back to CruiseResearch ActivitiesStationsMapUnderway DataData graphs

EquipmentUnitsComment
TimeDGPSUTC
LatitudeDGPSDM.mWGS84
LongitudeDGPSDM.mWGS84
TemperatureSBE03/SBE38deg celciusITS90
ConductivitySBE21S/mITS90
SalinitySBE21 Practical Salinity Units
ChlorophylAChelsea fluorimeterg/lCalibrated in Aceton
Missing or incorrect values are displayed as -999
Sea surface data collected by the RV Zeeleeuw from 2006-09-06 04:42:15 to 2006-09-06 16:26:44
                                                                                    Next 1000 lines
Time Latitude Longitude Temperature Conductivity Salinity ChlorophylA
2006-09-06 04:42:25 51°13.596 2°56.092 22.6277 0.07683 0.404836 5.286443
2006-09-06 04:42:30 51°13.597 2°56.092 22.6278 0.076622 0.403705 5.219024
2006-09-06 04:42:35 51°13.597 2°56.092 22.628 0.076519 0.403139 5.252734
2006-09-06 04:42:40 51°13.597 2°56.092 22.6282 0.076519 0.403139 5.252734
2006-09-06 04:42:45 51°13.597 2°56.093 22.628 0.076415 0.402562 5.219024
2006-09-06 04:42:50 51°13.597 2°56.094 22.6278 0.076311 0.401996 5.219024
2006-09-06 04:42:55 51°13.598 2°56.095 22.6276 0.076207 0.401425 5.252734
2006-09-06 04:43:00 51°13.598 2°56.093 22.6287 0.076103 0.400853 5.252734
2006-09-06 04:43:05 51°13.598 2°56.093 22.6278 0.075999 0.400288 5.252734
2006-09-06 04:43:10 51°13.598 2°56.094 22.6284 0.075999 0.400288 5.252734
2006-09-06 04:43:15 51°13.598 2°56.094 22.6287 0.075895 0.399716 5.252734
2006-09-06 04:43:20 51°13.598 2°56.094 22.6285 0.075895 0.39971 5.219024
2006-09-06 04:43:25 51°13.598 2°56.094 22.6283 0.075792 0.399145 5.219024
2006-09-06 04:43:30 51°13.598 2°56.094 22.6291 0.075688 0.398586 5.252734
2006-09-06 04:43:35 51°13.598 2°56.094 22.6289 0.075584 0.398021 5.219024
2006-09-06 04:43:40 51°13.598 2°56.094 22.6283 0.075584 0.398021 5.219024
2006-09-06 04:43:45 51°13.598 2°56.094 22.6283 0.07548 0.397449 5.252734
2006-09-06 04:43:50 51°13.598 2°56.094 22.6286 0.07548 0.397449 5.252734
2006-09-06 04:43:55 51°13.598 2°56.095 22.6268 0.075376 0.396884 5.252734
2006-09-06 04:44:00 51°13.598 2°56.095 22.6274 0.075272 0.396319 5.252734
2006-09-06 04:44:05 51°13.598 2°56.095 22.63 0.075272 0.396313 5.219024
2006-09-06 04:44:10 51°13.598 2°56.095 22.6296 0.075272 0.396313 5.219024
2006-09-06 04:44:15 51°13.598 2°56.095 22.6298 0.075168 0.395742 5.219024
2006-09-06 04:44:20 51°13.598 2°56.095 22.6296 0.075064 0.395177 5.219024
2006-09-06 04:44:25 51°13.598 2°56.095 22.6288 0.075064 0.395177 5.219024
2006-09-06 04:44:30 51°13.597 2°56.094 22.6275 0.074961 0.394612 5.252734
2006-09-06 04:44:35 51°13.597 2°56.094 22.6261 0.074857 0.394042 5.219024
2006-09-06 04:44:40 51°13.597 2°56.094 22.6253 0.074857 0.394042 5.219024
2006-09-06 04:44:45 51°13.597 2°56.094 22.6241 0.074857 0.394042 5.219024
2006-09-06 04:44:50 51°13.597 2°56.094 22.6237 0.074753 0.393471 5.219024
2006-09-06 04:44:55 51°13.597 2°56.094 22.6244 0.074753 0.393471 5.219024
2006-09-06 04:45:00 51°13.597 2°56.094 22.6257 0.074649 0.3929 5.252734
2006-09-06 04:45:05 51°13.597 2°56.094 22.6278 0.074649 0.3929 5.219024
2006-09-06 04:45:10 51°13.597 2°56.094 22.6286 0.074649 0.3929 5.219024
2006-09-06 04:45:15 51°13.597 2°56.094 22.6284 0.074545 0.392329 5.219024
2006-09-06 04:45:20 51°13.597 2°56.094 22.6295 0.074545 0.392329 5.219024
2006-09-06 04:45:25 51°13.597 2°56.094 22.6302 0.074441 0.391753 5.185315
2006-09-06 04:45:30 51°13.597 2°56.094 22.6319 0.074441 0.391759 5.219024
2006-09-06 04:45:35 51°13.597 2°56.094 22.6324 0.074441 0.391759 5.219024
2006-09-06 04:45:40 51°13.597 2°56.094 22.6325 0.074441 0.391759 5.219024
2006-09-06 04:45:45 51°13.597 2°56.094 22.6326 0.074337 0.391188 5.219024
2006-09-06 04:45:50 51°13.597 2°56.094 22.6328 0.074337 0.391188 5.185315
2006-09-06 04:45:55 51°13.597 2°56.094 22.6333 0.074233 0.390624 5.252734
2006-09-06 04:46:00 51°13.597 2°56.094 22.6338 0.074233 0.390624 5.252734
2006-09-06 04:46:05 51°13.597 2°56.094 22.6336 0.07413 0.390047 5.219024
2006-09-06 04:46:10 51°13.597 2°56.094 22.6338 0.07413 0.390047 5.219024
2006-09-06 04:46:15 51°13.597 2°56.095 22.6336 0.07413 0.390059 5.219024
2006-09-06 04:46:19 51°13.598 2°56.095 22.6314 0.074026 0.389489 5.219024
2006-09-06 04:46:22 51°13.598 2°56.095 22.6309 0.074026 0.389489 5.185315
2006-09-06 04:46:26 51°13.598 2°56.095 22.6327 0.073922 0.388924 5.219024
2006-09-06 04:46:31 51°13.598 2°56.095 22.632 0.073922 0.388924 5.185315
2006-09-06 04:46:36 51°13.598 2°56.095 22.6312 0.073922 0.388924 5.185315
2006-09-06 04:46:40 51°13.598 2°56.095 22.6326 0.073922 0.38893 5.185315
2006-09-06 04:46:46 51°13.598 2°56.095 22.6333 0.073818 0.38836 5.219024
2006-09-06 04:46:51 51°13.597 2°56.094 22.6335 0.073818 0.38836 5.219024
2006-09-06 04:46:56 51°13.597 2°56.094 22.6333 0.073818 0.388354 5.185315
2006-09-06 04:46:59 51°13.597 2°56.094 22.6328 0.073818 0.388354 5.185315
2006-09-06 04:47:06 51°13.597 2°56.094 22.6335 0.073818 0.388354 5.185315
2006-09-06 04:47:10 51°13.597 2°56.094 22.6332 0.073714 0.387796 5.219024
2006-09-06 04:47:16 51°13.597 2°56.094 22.6328 0.073714 0.38779 5.219024
2006-09-06 04:47:21 51°13.597 2°56.094 22.632 0.073714 0.387784 5.185315
2006-09-06 04:47:26 51°13.597 2°56.094 22.6317 0.07361 0.38722 5.219024
2006-09-06 04:47:31 51°13.597 2°56.094 22.6318 0.07361 0.38722 5.219024
2006-09-06 04:47:36 51°13.597 2°56.094 22.6323 0.07361 0.38722 5.219024
2006-09-06 04:47:40 51°13.597 2°56.094 22.6322 0.07361 0.387214 5.219024
2006-09-06 04:47:46 51°13.597 2°56.094 22.6309 0.073506 0.38665 5.219024
2006-09-06 04:47:51 51°13.597 2°56.094 22.6313 0.073506 0.38665 5.185315
2006-09-06 04:47:56 51°13.597 2°56.094 22.6334 0.073506 0.386656 5.219024
2006-09-06 04:48:01 51°13.597 2°56.094 22.632 0.073506 0.38665 5.185315
2006-09-06 04:48:06 51°13.597 2°56.094 22.6319 0.073506 0.38665 5.185315
2006-09-06 04:48:11 51°13.597 2°56.094 22.632 0.073506 0.386656 5.185315
2006-09-06 04:48:16 51°13.598 2°56.094 22.6329 0.073402 0.386092 5.185315
2006-09-06 04:48:20 51°13.597 2°56.094 22.6326 0.073402 0.386092 5.219024
2006-09-06 04:48:25 51°13.597 2°56.094 22.6306 0.073402 0.386092 5.219024
2006-09-06 04:48:30 51°13.597 2°56.094 22.6309 0.073402 0.386092 5.185315
2006-09-06 04:48:36 51°13.597 2°56.094 22.6302 0.073402 0.386092 5.185315
2006-09-06 04:48:40 51°13.597 2°56.094 22.6324 0.073299 0.385522 5.185315
2006-09-06 04:48:45 51°13.597 2°56.094 22.6314 0.073299 0.385522 5.151606
2006-09-06 04:48:51 51°13.598 2°56.094 22.6323 0.073299 0.385522 5.185315
2006-09-06 04:48:56 51°13.598 2°56.094 22.634 0.073299 0.385522 5.185315
2006-09-06 04:49:01 51°13.598 2°56.095 22.6342 0.073299 0.385516 5.219024
2006-09-06 04:49:06 51°13.598 2°56.095 22.635 0.073299 0.385516 5.219024
2006-09-06 04:49:10 51°13.598 2°56.095 22.6367 0.073195 0.384958 5.185315
2006-09-06 04:49:16 51°13.598 2°56.095 22.6356 0.073195 0.384958 5.219024
2006-09-06 04:49:21 51°13.598 2°56.095 22.6369 0.073195 0.384958 5.185315
2006-09-06 04:49:26 51°13.598 2°56.095 22.6372 0.073195 0.384958 5.219024
2006-09-06 04:49:31 51°13.598 2°56.095 22.6369 0.073091 0.384382 5.185315
2006-09-06 04:49:36 51°13.598 2°56.095 22.6379 0.073091 0.384382 5.185315
2006-09-06 04:49:40 51°13.598 2°56.095 22.6377 0.073091 0.384394 5.219024
2006-09-06 04:49:46 51°13.598 2°56.095 22.6384 0.073091 0.384382 5.185315
2006-09-06 04:49:51 51°13.597 2°56.095 22.6384 0.073091 0.384382 5.185315
2006-09-06 04:49:56 51°13.597 2°56.095 22.6383 0.073091 0.384382 5.219024
2006-09-06 04:50:01 51°13.597 2°56.095 22.6382 0.072987 0.383812 5.219024
2006-09-06 04:50:06 51°13.597 2°56.095 22.638 0.072987 0.383812 5.219024
2006-09-06 04:50:11 51°13.597 2°56.095 22.638 0.072987 0.383818 5.185315
2006-09-06 04:50:16 51°13.597 2°56.095 22.6381 0.072987 0.383812 5.219024
2006-09-06 04:50:20 51°13.597 2°56.095 22.6374 0.072987 0.383806 5.185315
2006-09-06 04:50:26 51°13.597 2°56.095 22.6378 0.072987 0.383818 5.185315
2006-09-06 04:50:31 51°13.597 2°56.096 22.6389 0.072883 0.383242 5.219024
2006-09-06 04:50:36 51°13.597 2°56.096 22.6411 0.072883 0.383242 5.219024
2006-09-06 04:50:40 51°13.597 2°56.096 22.6424 0.072883 0.383248 5.219024
2006-09-06 04:50:45 51°13.597 2°56.096 22.6425 0.072883 0.383242 5.219024
2006-09-06 04:50:51 51°13.597 2°56.096 22.6433 0.072883 0.383248 5.185315
2006-09-06 04:50:56 51°13.597 2°56.096 22.6432 0.072779 0.382679 5.219024
2006-09-06 04:51:00 51°13.597 2°56.096 22.6437 0.072779 0.382684 5.219024
2006-09-06 04:51:06 51°13.597 2°56.096 22.6438 0.072779 0.382684 5.219024
2006-09-06 04:51:11 51°13.597 2°56.095 22.644 0.072779 0.382679 5.219024
2006-09-06 04:51:16 51°13.597 2°56.095 22.6445 0.072779 0.382679 5.185315
2006-09-06 04:51:21 51°13.597 2°56.095 22.6437 0.072779 0.382673 5.219024
2006-09-06 04:51:26 51°13.597 2°56.095 22.6436 0.072675 0.382109 5.185315
2006-09-06 04:51:30 51°13.597 2°56.095 22.644 0.072675 0.382109 5.219024
2006-09-06 04:51:36 51°13.597 2°56.095 22.644 0.072675 0.382109 5.219024
2006-09-06 04:51:40 51°13.597 2°56.095 22.6438 0.072675 0.382109 5.185315
2006-09-06 04:51:46 51°13.597 2°56.095 22.6435 0.072675 0.382103 5.219024
2006-09-06 04:51:51 51°13.597 2°56.095 22.6428 0.072675 0.382103 5.185315
2006-09-06 04:51:56 51°13.597 2°56.096 22.6427 0.072675 0.382103 5.219024
2006-09-06 04:52:00 51°13.597 2°56.096 22.644 0.072572 0.381534 5.185315
2006-09-06 04:52:06 51°13.598 2°56.096 22.6444 0.072572 0.381534 5.185315
2006-09-06 04:52:11 51°13.598 2°56.096 22.6446 0.072572 0.381534 5.185315
2006-09-06 04:52:16 51°13.598 2°56.096 22.6418 0.072572 0.381534 5.219024
2006-09-06 04:52:20 51°13.598 2°56.096 22.6428 0.072572 0.381534 5.219024
2006-09-06 04:52:26 51°13.598 2°56.096 22.6435 0.072572 0.381528 5.185315
2006-09-06 04:52:30 51°13.597 2°56.096 22.6434 0.072468 0.38097 5.219024
2006-09-06 04:52:35 51°13.597 2°56.096 22.643 0.072468 0.38097 5.219024
2006-09-06 04:52:41 51°13.597 2°56.096 22.6435 0.072468 0.380964 5.185315
2006-09-06 04:52:46 51°13.598 2°56.096 22.6435 0.072468 0.380958 5.185315
2006-09-06 04:52:51 51°13.597 2°56.096 22.6435 0.072468 0.380964 5.219024
2006-09-06 04:52:56 51°13.597 2°56.096 22.6432 0.072468 0.380964 5.185315
2006-09-06 04:53:01 51°13.597 2°56.096 22.6454 0.072468 0.380958 5.185315
2006-09-06 04:53:06 51°13.597 2°56.096 22.6458 0.072468 0.380958 5.185315
2006-09-06 04:53:11 51°13.598 2°56.096 22.6456 0.072468 0.380958 5.185315
2006-09-06 04:53:16 51°13.598 2°56.096 22.6473 0.072468 0.380953 5.219024
2006-09-06 04:53:21 51°13.598 2°56.097 22.647 0.072468 0.380953 5.185315
2006-09-06 04:53:26 51°13.598 2°56.096 22.6473 0.072364 0.380389 5.219024
2006-09-06 04:53:31 51°13.598 2°56.096 22.6463 0.072364 0.380383 5.185315
2006-09-06 04:53:36 51°13.598 2°56.097 22.6459 0.072364 0.380383 5.185315
2006-09-06 04:53:41 51°13.598 2°56.097 22.6461 0.072364 0.380383 5.185315
2006-09-06 04:53:46 51°13.598 2°56.097 22.6453 0.072364 0.380383 5.185315
2006-09-06 04:53:51 51°13.598 2°56.097 22.6447 0.072364 0.380383 5.185315
2006-09-06 04:53:56 51°13.598 2°56.097 22.6448 0.072364 0.380377 5.185315
2006-09-06 04:54:01 51°13.598 2°56.097 22.6447 0.072364 0.380377 5.185315
2006-09-06 04:54:06 51°13.598 2°56.096 22.6452 0.072364 0.380377 5.185315
2006-09-06 04:54:11 51°13.598 2°56.096 22.6455 0.072364 0.380377 5.151606
2006-09-06 04:54:16 51°13.598 2°56.096 22.6463 0.07226 0.37982 5.185315
2006-09-06 04:54:20 51°13.598 2°56.096 22.6453 0.07226 0.37982 5.185315
2006-09-06 04:54:26 51°13.598 2°56.096 22.6469 0.07226 0.379814 5.219024
2006-09-06 04:54:31 51°13.598 2°56.096 22.6459 0.07226 0.379808 5.219024
2006-09-06 04:54:36 51°13.598 2°56.096 22.6447 0.07226 0.379808 5.219024
2006-09-06 04:54:40 51°13.598 2°56.096 22.6455 0.07226 0.379814 5.219024
2006-09-06 04:54:46 51°13.598 2°56.096 22.6467 0.07226 0.379814 5.219024
2006-09-06 04:54:51 51°13.598 2°56.096 22.6462 0.07226 0.379808 5.185315
2006-09-06 04:54:56 51°13.598 2°56.096 22.6471 0.072156 0.379245 5.185315
2006-09-06 04:55:01 51°13.598 2°56.096 22.6465 0.072156 0.379245 5.185315
2006-09-06 04:55:06 51°13.598 2°56.096 22.6466 0.072156 0.379245 5.185315
2006-09-06 04:55:10 51°13.598 2°56.096 22.6457 0.072156 0.379245 5.185315
2006-09-06 04:55:15 51°13.598 2°56.096 22.6428 0.072156 0.379239 5.185315
2006-09-06 04:55:21 51°13.598 2°56.096 22.6433 0.072156 0.379239 5.185315
2006-09-06 04:55:26 51°13.598 2°56.096 22.6442 0.072156 0.379239 5.185315
2006-09-06 04:55:31 51°13.598 2°56.096 22.6454 0.072052 0.378675 5.219024
2006-09-06 04:55:36 51°13.598 2°56.096 22.647 0.072052 0.378675 5.219024
2006-09-06 04:55:40 51°13.598 2°56.096 22.6482 0.072052 0.378664 5.219024
2006-09-06 04:55:45 51°13.598 2°56.096 22.649 0.072052 0.37867 5.219024
2006-09-06 04:55:51 51°13.598 2°56.096 22.6497 0.072052 0.37867 5.185315
2006-09-06 04:55:56 51°13.598 2°56.096 22.6531 0.072052 0.378675 5.151606
2006-09-06 04:56:01 51°13.598 2°56.096 22.6503 0.072052 0.378664 5.185315
2006-09-06 04:56:06 51°13.598 2°56.096 22.6494 0.072052 0.378664 5.185315
2006-09-06 04:56:11 51°13.598 2°56.096 22.653 0.072052 0.378664 5.185315
2006-09-06 04:56:16 51°13.598 2°56.096 22.6528 0.071948 0.378101 5.185315
2006-09-06 04:56:20 51°13.598 2°56.096 22.6528 0.071948 0.378101 5.219024
2006-09-06 04:56:26 51°13.598 2°56.096 22.6517 0.071948 0.378101 5.185315
2006-09-06 04:56:31 51°13.598 2°56.096 22.6531 0.071948 0.378101 5.185315
2006-09-06 04:56:36 51°13.598 2°56.096 22.6536 0.071948 0.378101 5.185315
2006-09-06 04:56:39 51°13.598 2°56.096 22.6546 0.071948 0.378101 5.185315
2006-09-06 04:56:46 51°13.598 2°56.096 22.6553 0.071844 0.377537 5.219024
2006-09-06 04:56:50 51°13.598 2°56.096 22.6533 0.071844 0.377537 5.185315
2006-09-06 04:56:56 51°13.598 2°56.096 22.6553 0.071844 0.377537 5.185315
2006-09-06 04:57:00 51°13.598 2°56.096 22.6551 0.071844 0.377531 5.219024
2006-09-06 04:57:06 51°13.598 2°56.096 22.6553 0.071844 0.377531 5.219024
2006-09-06 04:57:11 51°13.598 2°56.096 22.656 0.071844 0.377537 5.185315
2006-09-06 04:57:16 51°13.598 2°56.095 22.656 0.071844 0.377526 5.219024
2006-09-06 04:57:20 51°13.598 2°56.095 22.6562 0.071844 0.377526 5.219024
2006-09-06 04:57:23 51°13.598 2°56.095 22.6567 0.071741 0.376968 5.185315
2006-09-06 04:57:31 51°13.598 2°56.095 22.6566 0.071844 0.377526 5.185315
2006-09-06 04:57:36 51°13.598 2°56.095 22.6576 0.071844 0.377526 5.185315
2006-09-06 04:57:41 51°13.598 2°56.095 22.6573 0.071741 0.376963 5.185315
2006-09-06 04:57:46 51°13.598 2°56.095 22.6578 0.071741 0.376963 5.219024
2006-09-06 04:57:51 51°13.598 2°56.095 22.6588 0.071741 0.376957 5.219024
2006-09-06 04:57:56 51°13.598 2°56.094 22.659 0.071741 0.376957 5.185315
2006-09-06 04:58:00 51°13.598 2°56.094 22.6589 0.071741 0.376957 5.185315
2006-09-06 04:58:06 51°13.598 2°56.094 22.6583 0.071741 0.376957 5.185315
2006-09-06 04:58:10 51°13.598 2°56.094 22.6546 0.071741 0.376957 5.219024
2006-09-06 04:58:16 51°13.597 2°56.094 22.6519 0.071741 0.376957 5.185315
2006-09-06 04:58:20 51°13.597 2°56.094 22.6529 0.071637 0.376388 5.219024
2006-09-06 04:58:26 51°13.598 2°56.094 22.656 0.071741 0.376951 5.185315
2006-09-06 04:58:31 51°13.598 2°56.094 22.6548 0.071637 0.376388 5.185315
2006-09-06 04:58:36 51°13.598 2°56.094 22.6532 0.071637 0.376388 5.185315
2006-09-06 04:58:41 51°13.597 2°56.094 22.6539 0.071637 0.376388 5.185315
2006-09-06 04:58:46 51°13.597 2°56.094 22.6547 0.071637 0.376394 5.219024
2006-09-06 04:58:51 51°13.597 2°56.094 22.6551 0.071637 0.376388 5.219024
2006-09-06 04:58:56 51°13.597 2°56.094 22.6555 0.071637 0.376399 5.185315
2006-09-06 04:59:01 51°13.597 2°56.094 22.6566 0.071637 0.376388 5.185315
2006-09-06 04:59:06 51°13.597 2°56.094 22.6562 0.071637 0.376388 5.185315
2006-09-06 04:59:11 51°13.597 2°56.094 22.6555 0.071637 0.376388 5.185315
2006-09-06 04:59:16 51°13.597 2°56.094 22.6548 0.071637 0.376382 5.185315
2006-09-06 04:59:20 51°13.597 2°56.094 22.6512 0.071533 0.375819 5.219024
2006-09-06 04:59:26 51°13.597 2°56.094 22.6555 0.071533 0.375819 5.219024
2006-09-06 04:59:31 51°13.597 2°56.094 22.6563 0.071533 0.375813 5.185315
2006-09-06 04:59:36 51°13.597 2°56.094 22.6579 0.071533 0.375813 5.185315
2006-09-06 04:59:40 51°13.597 2°56.094 22.6582 0.071533 0.375813 5.185315
2006-09-06 04:59:46 51°13.597 2°56.094 22.6579 0.071533 0.375813 5.185315
2006-09-06 04:59:51 51°13.597 2°56.094 22.6574 0.071533 0.375819 5.185315
2006-09-06 04:59:56 51°13.597 2°56.094 22.6582 0.071533 0.375813 5.185315
2006-09-06 05:00:00 51°13.597 2°56.094 22.6596 0.071533 0.375813 5.151606
2006-09-06 05:00:06 51°13.597 2°56.094 22.6594 0.071533 0.375813 5.151606
2006-09-06 05:00:11 51°13.597 2°56.094 22.6598 0.071533 0.375808 5.185315
2006-09-06 05:00:16 51°13.597 2°56.094 22.6598 0.071429 0.375245 5.185315
2006-09-06 05:00:21 51°13.597 2°56.094 22.6556 0.071429 0.37525 5.219024
2006-09-06 05:00:26 51°13.597 2°56.094 22.6523 0.071429 0.37525 5.185315
2006-09-06 05:00:31 51°13.597 2°56.094 22.649 0.071429 0.375245 5.185315
2006-09-06 05:00:37 51°13.597 2°56.093 22.6503 0.071429 0.375245 5.185315
2006-09-06 05:00:41 51°13.597 2°56.093 22.6448 0.071429 0.375245 5.185315
2006-09-06 05:00:46 51°13.597 2°56.092 22.615 0.071429 0.375245 5.185315
2006-09-06 05:00:51 51°13.597 2°56.091 22.6217 0.071429 0.375245 5.219024
2006-09-06 05:00:57 51°13.598 2°56.089 22.6308 0.071429 0.375239 5.151606
2006-09-06 05:01:01 51°13.599 2°56.087 22.6376 0.071429 0.375239 5.185315
2006-09-06 05:01:06 51°13.599 2°56.085 22.6497 0.071429 0.375239 5.185315
2006-09-06 05:01:11 51°13.6 2°56.082 22.657 0.071429 0.375245 5.219024
2006-09-06 05:01:16 51°13.6 2°56.079 22.6554 0.071429 0.375233 5.219024
2006-09-06 05:01:21 51°13.601 2°56.076 22.6474 0.071325 0.374676 5.185315
2006-09-06 05:01:27 51°13.602 2°56.071 22.6375 0.071325 0.37467 5.185315
2006-09-06 05:01:32 51°13.603 2°56.067 22.6492 0.071325 0.37467 5.185315
2006-09-06 05:01:37 51°13.604 2°56.062 22.6593 0.071325 0.37467 5.185315
2006-09-06 05:01:42 51°13.605 2°56.058 22.665 0.071325 0.37467 5.185315
2006-09-06 05:01:47 51°13.607 2°56.053 22.6623 0.071325 0.374676 5.219024
2006-09-06 05:01:52 51°13.608 2°56.048 22.6672 0.071325 0.37467 5.219024
2006-09-06 05:01:57 51°13.609 2°56.042 22.6759 0.071325 0.374664 5.219024
2006-09-06 05:02:02 51°13.61 2°56.037 22.6727 0.071325 0.374664 5.219024
2006-09-06 05:02:08 51°13.611 2°56.031 22.6895 0.071325 0.374664 5.219024
2006-09-06 05:02:12 51°13.613 2°56.026 22.6826 0.071325 0.374664 5.185315
2006-09-06 05:02:17 51°13.614 2°56.021 22.6782 0.071325 0.374664 5.185315
2006-09-06 05:02:22 51°13.615 2°56.015 22.6806 0.071221 0.374101 5.185315
2006-09-06 05:02:27 51°13.617 2°56.01 22.6796 0.071221 0.374096 5.185315
2006-09-06 05:02:32 51°13.618 2°56.004 22.6751 0.071221 0.374096 5.185315
2006-09-06 05:02:37 51°13.619 2°55.999 22.6784 0.071221 0.374096 5.185315
2006-09-06 05:02:42 51°13.621 2°55.993 22.6832 0.071221 0.37409 5.219024
2006-09-06 05:02:47 51°13.622 2°55.988 22.6771 0.071221 0.37409 5.185315
2006-09-06 05:02:52 51°13.624 2°55.982 22.6762 0.071221 0.374084 5.185315
2006-09-06 05:02:57 51°13.626 2°55.976 22.6697 0.071221 0.37409 5.185315
2006-09-06 05:03:03 51°13.628 2°55.969 22.6613 0.071221 0.37409 5.151606
2006-09-06 05:03:07 51°13.629 2°55.965 22.6599 0.071221 0.37409 5.151606
2006-09-06 05:03:12 51°13.631 2°55.959 22.6563 0.071221 0.37409 5.185315
2006-09-06 05:03:18 51°13.633 2°55.952 22.6582 0.071117 0.373527 5.219024
2006-09-06 05:03:22 51°13.635 2°55.947 22.6603 0.071117 0.373533 5.185315
2006-09-06 05:03:28 51°13.637 2°55.94 22.6637 0.071117 0.373522 5.219024
2006-09-06 05:03:32 51°13.639 2°55.935 22.6671 0.071117 0.373527 5.185315
2006-09-06 05:03:37 51°13.641 2°55.929 22.6688 0.071117 0.373527 5.185315
2006-09-06 05:03:42 51°13.643 2°55.923 22.6691 0.071117 0.373527 5.185315
2006-09-06 05:03:48 51°13.646 2°55.915 22.6707 0.071117 0.373527 5.185315
2006-09-06 05:03:52 51°13.648 2°55.91 22.6711 0.071117 0.373527 5.219024
2006-09-06 05:03:57 51°13.65 2°55.904 22.6718 0.071117 0.373527 5.185315
2006-09-06 05:04:02 51°13.653 2°55.898 22.6717 0.071117 0.373527 5.185315
2006-09-06 05:04:08 51°13.656 2°55.89 22.6718 0.071117 0.373527 5.185315
2006-09-06 05:04:12 51°13.658 2°55.885 22.672 0.071117 0.373527 5.185315
2006-09-06 05:04:17 51°13.661 2°55.879 22.6723 0.071014 0.372959 5.219024
2006-09-06 05:04:21 51°13.663 2°55.874 22.6729 0.071014 0.372953 5.219024
2006-09-06 05:04:27 51°13.666 2°55.867 22.6719 0.071014 0.372959 5.219024
2006-09-06 05:04:33 51°13.669 2°55.859 22.6723 0.071014 0.372953 5.185315
2006-09-06 05:04:37 51°13.671 2°55.854 22.6721 0.071014 0.372953 5.185315
2006-09-06 05:04:42 51°13.674 2°55.848 22.6722 0.071014 0.372953 5.185315
2006-09-06 05:04:47 51°13.677 2°55.841 22.6719 0.071014 0.372953 5.185315
2006-09-06 05:04:52 51°13.68 2°55.835 22.673 0.071014 0.372947 5.185315
2006-09-06 05:04:57 51°13.683 2°55.828 22.6733 0.071014 0.372947 5.185315
2006-09-06 05:05:03 51°13.686 2°55.821 22.6741 0.071014 0.372942 5.219024
2006-09-06 05:05:07 51°13.688 2°55.816 22.6743 0.071014 0.372942 5.219024
2006-09-06 05:05:12 51°13.69 2°55.81 22.6751 0.071014 0.372942 5.219024
2006-09-06 05:05:17 51°13.692 2°55.804 22.6756 0.071014 0.372942 5.219024
2006-09-06 05:05:22 51°13.695 2°55.798 22.6751 0.07091 0.372373 5.185315
2006-09-06 05:05:27 51°13.697 2°55.793 22.6744 0.07091 0.372379 5.219024
2006-09-06 05:05:32 51°13.699 2°55.788 22.6696 0.07091 0.372373 5.185315
2006-09-06 05:05:37 51°13.701 2°55.783 22.67 0.07091 0.372373 5.185315
2006-09-06 05:05:41 51°13.703 2°55.779 22.6606 0.07091 0.372373 5.185315
2006-09-06 05:05:47 51°13.705 2°55.773 22.6562 0.07091 0.372373 5.219024
2006-09-06 05:05:52 51°13.706 2°55.769 22.6664 0.07091 0.372373 5.219024
2006-09-06 05:05:57 51°13.708 2°55.765 22.6807 0.07091 0.372368 5.185315
2006-09-06 05:06:02 51°13.709 2°55.762 22.7021 0.07091 0.372368 5.219024
2006-09-06 05:06:07 51°13.71 2°55.76 22.7005 0.07091 0.372368 5.219024
2006-09-06 05:06:11 51°13.711 2°55.759 22.7039 0.07091 0.372368 5.185315
2006-09-06 05:06:17 51°13.711 2°55.758 22.7028 0.070806 0.371799 5.252734
2006-09-06 05:06:21 51°13.712 2°55.759 22.7063 0.070806 0.371794 5.219024
2006-09-06 05:06:27 51°13.713 2°55.76 22.7041 0.070806 0.371794 5.219024
2006-09-06 05:06:32 51°13.714 2°55.762 22.7065 0.070806 0.371794 5.219024
2006-09-06 05:06:37 51°13.715 2°55.764 22.6498 0.070806 0.371794 5.219024
2006-09-06 05:06:41 51°13.716 2°55.765 22.6458 0.070806 0.371794 5.185315
2006-09-06 05:06:45 51°13.717 2°55.766 22.6275 0.070806 0.371794 5.219024
2006-09-06 05:06:52 51°13.718 2°55.767 22.6435 0.070806 0.371794 5.219024
2006-09-06 05:06:57 51°13.718 2°55.766 22.6474 0.070806 0.371794 5.185315
2006-09-06 05:07:01 51°13.718 2°55.766 22.6143 0.070806 0.371788 5.219024
2006-09-06 05:07:07 51°13.719 2°55.764 22.6358 0.070806 0.371788 5.219024
2006-09-06 05:07:11 51°13.719 2°55.763 22.6389 0.070806 0.371788 5.219024
2006-09-06 05:07:17 51°13.718 2°55.761 22.6553 0.070806 0.371788 5.185315
2006-09-06 05:07:22 51°13.718 2°55.758 22.6412 0.070702 0.37122 5.185315
2006-09-06 05:07:27 51°13.717 2°55.756 22.6342 0.070702 0.37122 5.185315
2006-09-06 05:07:32 51°13.716 2°55.753 22.6604 0.070702 0.37122 5.219024
2006-09-06 05:07:38 51°13.715 2°55.749 22.6856 0.070702 0.37122 5.219024
2006-09-06 05:07:42 51°13.714 2°55.747 22.6852 0.070702 0.371214 5.219024
2006-09-06 05:07:47 51°13.713 2°55.744 22.6859 0.070702 0.371208 5.219024
2006-09-06 05:07:52 51°13.712 2°55.742 22.685 0.070702 0.371208 5.219024
2006-09-06 05:07:58 51°13.711 2°55.74 22.6857 0.070702 0.371208 5.185315
2006-09-06 05:08:02 51°13.711 2°55.739 22.6894 0.070702 0.371203 5.185315
2006-09-06 05:08:07 51°13.711 2°55.737 22.6909 0.070702 0.371203 5.185315
2006-09-06 05:08:12 51°13.711 2°55.737 22.6957 0.070702 0.371203 5.185315
2006-09-06 05:08:17 51°13.711 2°55.736 22.7039 0.070702 0.371203 5.185315
2006-09-06 05:08:22 51°13.712 2°55.736 22.7073 0.070702 0.371197 5.185315
2006-09-06 05:08:28 51°13.714 2°55.736 22.7145 0.070598 0.37064 5.252734
2006-09-06 05:08:32 51°13.715 2°55.735 22.7192 0.070598 0.37064 5.252734
2006-09-06 05:08:37 51°13.717 2°55.735 22.7202 0.070598 0.37064 5.252734
2006-09-06 05:08:42 51°13.719 2°55.734 22.7297 0.070598 0.370635 5.219024
2006-09-06 05:08:47 51°13.721 2°55.732 22.7307 0.070598 0.370635 5.219024
2006-09-06 05:08:52 51°13.724 2°55.73 22.7383 0.070598 0.370635 5.219024
2006-09-06 05:08:57 51°13.728 2°55.728 22.7265 0.070598 0.370635 5.185315
2006-09-06 05:09:02 51°13.732 2°55.724 22.6941 0.070598 0.37064 5.219024
2006-09-06 05:09:06 51°13.735 2°55.72 22.6891 0.070598 0.37064 5.219024
2006-09-06 05:09:11 51°13.74 2°55.715 22.6223 0.070598 0.370635 5.185315
2006-09-06 05:09:17 51°13.747 2°55.708 22.6312 0.070598 0.37064 5.185315
2006-09-06 05:09:21 51°13.751 2°55.704 22.5963 0.070598 0.37064 5.219024
2006-09-06 05:09:27 51°13.758 2°55.697 22.6133 0.070598 0.37064 5.185315
2006-09-06 05:09:31 51°13.763 2°55.692 22.595 0.070598 0.370635 5.185315
2006-09-06 05:09:37 51°13.771 2°55.684 22.5987 0.070598 0.370635 5.185315
2006-09-06 05:09:40 51°13.775 2°55.68 22.597 0.070598 0.370635 5.252734
2006-09-06 05:09:47 51°13.785 2°55.671 22.5599 0.070494 0.370066 5.185315
2006-09-06 05:09:52 51°13.792 2°55.665 22.633 0.070494 0.370066 5.219024
2006-09-06 05:09:57 51°13.799 2°55.659 22.6101 0.070494 0.370066 5.185315
2006-09-06 05:10:01 51°13.805 2°55.654 22.6296 0.070494 0.370061 5.185315
2006-09-06 05:10:07 51°13.813 2°55.648 22.6286 0.070494 0.370061 5.185315
2006-09-06 05:10:11 51°13.819 2°55.643 22.6451 0.070494 0.370066 5.185315
2006-09-06 05:10:17 51°13.827 2°55.637 22.6507 0.070494 0.370066 5.185315
2006-09-06 05:10:22 51°13.834 2°55.632 22.6596 0.070494 0.370066 5.185315
2006-09-06 05:10:27 51°13.841 2°55.627 22.6648 0.070494 0.370072 5.185315
2006-09-06 05:10:32 51°13.847 2°55.622 22.6767 0.070494 0.370083 5.219024
2006-09-06 05:10:37 51°13.854 2°55.617 22.6938 0.070494 0.370083 5.219024
2006-09-06 05:10:41 51°13.859 2°55.614 22.6925 0.070494 0.370078 5.219024
2006-09-06 05:10:47 51°13.867 2°55.608 22.7044 0.070494 0.370083 5.219024
2006-09-06 05:10:52 51°13.874 2°55.603 22.703 0.070494 0.370089 5.252734
2006-09-06 05:10:57 51°13.88 2°55.598 21.9191 0.070494 0.370089 5.219024
2006-09-06 05:11:02 51°13.886 2°55.593 21.9991 0.070598 0.370663 6.938204
2006-09-06 05:11:07 51°13.892 2°55.589 22.1086 0.070598 0.370663 6.938204
2006-09-06 05:11:10 51°13.896 2°55.586 22.2514 0.082336 0.43454 5.724665
2006-09-06 05:11:17 51°13.904 2°55.58 22.371 0.081712 0.431175 5.623537
2006-09-06 05:11:21 51°13.908 2°55.576 22.4289 0.082024 0.432625 5.623537
2006-09-06 05:11:27 51°13.914 2°55.571 22.453 0.082336 0.434187 5.657247
2006-09-06 05:11:32 51°13.919 2°55.567 22.4579 0.082543 0.435295 5.623537
2006-09-06 05:11:37 51°13.924 2°55.563 21.8385 0.082543 0.435295 5.623537
2006-09-06 05:11:41 51°13.928 2°55.559 21.0687 0.08244 0.434701 5.623537
2006-09-06 05:11:47 51°13.933 2°55.554 20.3028 0.082336 0.434107 5.859503
2006-09-06 05:11:52 51°13.938 2°55.551 19.6299 0.082128 0.432881 5.724665
2006-09-06 05:11:57 51°13.943 2°55.546 19.4959 0.05367 0.278299 9.4327
2006-09-06 05:12:01 51°13.947 2°55.543 19.3879 2.299775 14.761673 6.331435
2006-09-06 05:12:07 51°13.954 2°55.539 19.3703 2.299775 14.761673 6.331435
2006-09-06 05:12:11 51°13.958 2°55.535 19.3024 2.669935 17.372845 5.353862
2006-09-06 05:12:17 51°13.965 2°55.531 19.2865 4.003676 27.468325 5.320153
2006-09-06 05:12:21 51°13.97 2°55.527 19.2479 3.556318 24.317671 5.050477
2006-09-06 05:12:27 51°13.977 2°55.521 19.1958 3.664189 25.322675 5.084187
2006-09-06 05:12:30 51°13.981 2°55.519 19.1856 4.15515 29.595376 4.949349
2006-09-06 05:12:37 51°13.991 2°55.512 19.1805 4.15515 29.595376 4.949349
2006-09-06 05:12:42 51°13.998 2°55.506 19.1322 4.106775 29.479129 4.91564
2006-09-06 05:12:47 51°14.006 2°55.501 19.1214 4.076528 29.363853 4.848221
2006-09-06 05:12:52 51°14.013 2°55.495 19.121 4.040274 29.177401 4.780802
2006-09-06 05:12:57 51°14.022 2°55.489 19.0815 4.031423 29.190157 4.747093
2006-09-06 05:13:01 51°14.029 2°55.485 19.1274 3.952383 28.602105 4.713383
2006-09-06 05:13:07 51°14.039 2°55.477 19.1039 3.952383 28.602105 4.713383
2006-09-06 05:13:11 51°14.046 2°55.473 19.1278 4.009503 29.091045 4.679674
2006-09-06 05:13:17 51°14.057 2°55.465 19.0688 4.00866 29.106529 4.612255
2006-09-06 05:13:21 51°14.065 2°55.461 19.1296 4.013193 29.165014 4.645965
2006-09-06 05:13:27 51°14.077 2°55.454 19.0601 4.032374 29.338229 4.679674
2006-09-06 05:13:32 51°14.087 2°55.448 19.0539 4.024997 29.288978 4.612255
2006-09-06 05:13:37 51°14.097 2°55.442 19.0883 4.024997 29.288978 4.612255
2006-09-06 05:13:42 51°14.107 2°55.436 19.0853 4.044495 29.456529 4.645965
2006-09-06 05:13:47 51°14.117 2°55.429 19.052 4.062728 29.606964 4.645965
2006-09-06 05:13:51 51°14.125 2°55.424 19.0334 4.076325 29.732571 4.645965
2006-09-06 05:13:57 51°14.137 2°55.416 19.0649 4.082965 29.788049 4.679674
2006-09-06 05:14:01 51°14.146 2°55.41 19.0322 4.086548 29.831964 4.713383
2006-09-06 05:14:07 51°14.158 2°55.402 19.0017 4.086548 29.831964 4.713383
2006-09-06 05:14:11 51°14.167 2°55.395 19.0328 4.077273 29.75961 4.713383
2006-09-06 05:14:17 51°14.179 2°55.386 19.0153 4.077168 29.762317 4.747093
2006-09-06 05:14:21 51°14.187 2°55.379 19.0019 4.092135 29.891712 4.780802
2006-09-06 05:14:27 51°14.2 2°55.369 18.9778 4.089922 29.881886 4.780802
2006-09-06 05:14:31 51°14.208 2°55.362 18.9723 4.072215 29.737309 4.780802
2006-09-06 05:14:37 51°14.22 2°55.35 18.9845 4.072215 29.737309 4.780802
2006-09-06 05:14:42 51°14.229 2°55.34 18.9875 4.07348 29.767474 4.780802
2006-09-06 05:14:47 51°14.238 2°55.328 18.9667 4.084441 29.858244 4.814512
2006-09-06 05:14:52 51°14.247 2°55.315 18.978 4.104467 30.024468 4.780802
2006-09-06 05:14:57 51°14.255 2°55.302 18.9698 4.121753 30.17678 4.814512
2006-09-06 05:15:00 51°14.26 2°55.294 18.9527 4.103941 30.046441 4.814512
2006-09-06 05:15:07 51°14.271 2°55.274 18.9573 4.103941 30.046441 4.814512
2006-09-06 05:15:12 51°14.278 2°55.26 18.9553 4.130291 30.263578 4.814512
2006-09-06 05:15:17 51°14.285 2°55.245 18.9646 4.115851 30.146724 4.848221
2006-09-06 05:15:21 51°14.291 2°55.233 18.9665 4.061782 29.710458 4.848221
2006-09-06 05:15:27 51°14.3 2°55.215 18.9515 4.113427 30.129523 4.88193
2006-09-06 05:15:32 51°14.307 2°55.2 18.9769 4.092979 29.970927 4.91564
2006-09-06 05:15:36 51°14.312 2°55.187 18.9565 4.092979 29.970927 4.91564
2006-09-06 05:15:41 51°14.32 2°55.172 18.941 4.077591 29.849018 4.91564
2006-09-06 05:15:47 51°14.328 2°55.152 18.9377 3.946486 28.784699 4.88193
2006-09-06 05:15:51 51°14.334 2°55.14 18.95 4.031745 29.479063 4.88193
2006-09-06 05:15:57 51°14.343 2°55.12 18.9784 4.008032 29.289639 4.91564
2006-09-06 05:16:01 51°14.349 2°55.107 18.9465 4.013406 29.329837 4.88193
2006-09-06 05:16:07 51°14.358 2°55.086 18.9321 4.013406 29.329837 4.88193
2006-09-06 05:16:12 51°14.365 2°55.069 18.9623 4.002446 29.240697 4.88193
2006-09-06 05:16:17 51°14.371 2°55.051 18.9512 3.999284 29.217499 4.88193
2006-09-06 05:16:21 51°14.376 2°55.036 18.9366 3.992013 29.163388 4.88193
2006-09-06 05:16:27 51°14.383 2°55.013 18.9403 3.963137 28.93075 4.91564
2006-09-06 05:16:31 51°14.387 2°54.998 18.9222 4.014777 29.348539 4.88193
2006-09-06 05:16:37 51°14.394 2°54.974 18.9292 4.014777 29.348539 4.88193
2006-09-06 05:16:42 51°14.399 2°54.954 18.9456 4.026264 29.447599 4.88193
2006-09-06 05:16:47 51°14.405 2°54.933 18.911 4.028056 29.463706 4.949349
2006-09-06 05:16:52 51°14.41 2°54.912 18.9061 4.054615 29.679078 4.88193
2006-09-06 05:16:57 51°14.416 2°54.891 18.8856 4.078962 29.881226 4.91564
2006-09-06 05:17:01 51°14.42 2°54.873 18.8983 4.091293 29.986516 4.88193
2006-09-06 05:17:05 51°14.425 2°54.856 18.8957 4.091293 29.986516 4.88193
2006-09-06 05:17:11 51°14.433 2°54.828 18.8559 4.106577 30.116003 4.88193
2006-09-06 05:17:16 51°14.439 2°54.806 18.8489 4.103309 30.08465 4.88193
2006-09-06 05:17:22 51°14.446 2°54.778 18.8542 4.129449 30.305591 4.88193
2006-09-06 05:17:27 51°14.452 2°54.753 18.8371 4.119225 30.229778 4.814512
2006-09-06 05:17:31 51°14.457 2°54.735 18.8077 4.159911 30.568043 4.848221
2006-09-06 05:17:37 51°14.464 2°54.706 18.8022 4.159911 30.568043 4.848221
2006-09-06 05:17:41 51°14.469 2°54.686 18.8153 4.197647 30.881148 4.88193
2006-09-06 05:17:47 51°14.476 2°54.657 18.801 4.166236 30.638844 4.848221
2006-09-06 05:17:52 51°14.483 2°54.633 18.7916 4.241499 31.26766 4.814512
2006-09-06 05:17:57 51°14.489 2°54.608 18.7777 4.215041 31.057065 4.814512
2006-09-06 05:18:01 51°14.493 2°54.588 18.7552 4.265534 31.486099 4.747093
2006-09-06 05:18:07 51°14.5 2°54.558 18.7628 4.265534 31.486099 4.747093
2006-09-06 05:18:12 51°14.505 2°54.533 18.7632 4.282401 31.638766 4.747093
2006-09-06 05:18:17 51°14.511 2°54.508 18.7498 4.252568 31.397162 4.747093
2006-09-06 05:18:22 51°14.517 2°54.483 18.7445 4.310338 31.881983 4.747093
2006-09-06 05:18:27 51°14.523 2°54.457 18.7512 4.336166 32.10377 4.747093
2006-09-06 05:18:31 51°14.527 2°54.436 18.748 4.356724 32.283914 4.747093
2006-09-06 05:18:37 51°14.534 2°54.406 18.7314 4.356724 32.283914 4.747093
2006-09-06 05:18:41 51°14.539 2°54.386 18.738 4.352191 32.255861 4.713383
2006-09-06 05:18:47 51°14.547 2°54.356 18.7171 4.38635 32.545111 4.713383
2006-09-06 05:18:51 51°14.552 2°54.335 18.7337 4.386139 32.55012 4.713383
2006-09-06 05:18:57 51°14.559 2°54.305 18.7356 4.413762 32.783918 4.713383
2006-09-06 05:19:02 51°14.566 2°54.279 18.7236 4.406909 32.729843 4.679674
2006-09-06 05:19:06 51°14.57 2°54.258 18.7163 4.406909 32.729843 4.679674
2006-09-06 05:19:11 51°14.576 2°54.232 18.7417 4.443072 33.034345 4.645965
2006-09-06 05:19:17 51°14.584 2°54.201 18.6909 4.453088 33.122248 4.645965
2006-09-06 05:19:22 51°14.59 2°54.175 18.6806 4.468165 33.251767 4.645965
2006-09-06 05:19:27 51°14.596 2°54.149 18.6744 4.479974 33.353582 4.645965
2006-09-06 05:19:31 51°14.601 2°54.128 18.6942 4.470801 33.278329 4.612255
2006-09-06 05:19:37 51°14.608 2°54.097 18.6832 4.470801 33.278329 4.612255
2006-09-06 05:19:41 51°14.614 2°54.076 18.6733 4.493154 33.465149 4.612255
2006-09-06 05:19:47 51°14.622 2°54.046 18.6608 4.504014 33.558602 4.612255
2006-09-06 05:19:51 51°14.628 2°54.025 18.6664 4.512344 33.63916 4.578546
2006-09-06 05:19:57 51°14.635 2°53.995 18.6594 4.521834 33.730067 4.578546
2006-09-06 05:20:01 51°14.641 2°53.974 18.6565 4.521623 33.730062 4.578546
2006-09-06 05:20:06 51°14.647 2°53.948 18.6646 4.521623 33.730062 4.578546
2006-09-06 05:20:12 51°14.655 2°53.918 18.6506 4.527528 33.778208 4.578546
2006-09-06 05:20:17 51°14.662 2°53.892 18.6445 4.533116 33.829002 4.578546
2006-09-06 05:20:21 51°14.667 2°53.872 18.648 4.53048 33.818715 4.578546
2006-09-06 05:20:27 51°14.676 2°53.842 18.6353 4.523943 33.768772 4.578546
2006-09-06 05:20:32 51°14.682 2°53.817 18.6344 4.531429 33.836634 4.578546
2006-09-06 05:20:37 51°14.688 2°53.791 18.6426 4.531429 33.836634 4.578546
2006-09-06 05:20:42 51°14.694 2°53.766 18.6366 4.54461 33.948628 4.578546
2006-09-06 05:20:47 51°14.7 2°53.741 18.6484 4.536174 33.882193 4.544836
2006-09-06 05:20:50 51°14.704 2°53.725 18.6352 4.535015 33.877789 4.544836
2006-09-06 05:20:57 51°14.712 2°53.689 18.6472 4.550936 34.014558 4.578546
2006-09-06 05:21:01 51°14.716 2°53.669 18.6322 4.543028 33.951911 4.544836
2006-09-06 05:21:07 51°14.723 2°53.638 18.6369 4.543028 33.951911 4.544836
2006-09-06 05:21:12 51°14.729 2°53.612 18.62 4.529743 33.841925 4.544836
2006-09-06 05:21:17 51°14.736 2°53.587 18.6306 4.557474 34.074618 4.544836
2006-09-06 05:21:21 51°14.74 2°53.567 18.6308 4.557474 34.074618 4.511127
2006-09-06 05:21:27 51°14.749 2°53.537 18.637 4.558107 34.079916 4.511127
2006-09-06 05:21:31 51°14.754 2°53.516 18.6335 4.558845 34.08669 4.511127
2006-09-06 05:21:37 51°14.762 2°53.486 18.6238 4.558845 34.08669 4.511127
2006-09-06 05:21:42 51°14.769 2°53.461 18.6264 4.55895 34.090536 4.477418
2006-09-06 05:21:47 51°14.776 2°53.436 18.6267 4.56359 34.134739 4.477418
2006-09-06 05:21:52 51°14.783 2°53.411 18.6233 4.565593 34.152713 4.443708
2006-09-06 05:21:56 51°14.789 2°53.391 18.6171 4.567175 34.165372 4.443708
2006-09-06 05:22:01 51°14.795 2°53.366 18.6257 4.566437 34.158593 4.443708
2006-09-06 05:22:07 51°14.804 2°53.335 18.6241 4.566437 34.158593 4.443708
2006-09-06 05:22:12 51°14.81 2°53.31 18.6264 4.566226 34.160984 4.443708
2006-09-06 05:22:16 51°14.816 2°53.29 18.6187 4.570338 34.195449 4.443708
2006-09-06 05:22:21 51°14.823 2°53.265 18.6191 4.57076 34.198984 4.409999
2006-09-06 05:22:27 51°14.831 2°53.235 18.6175 4.571604 34.207245 4.409999
2006-09-06 05:22:32 51°14.838 2°53.21 18.6146 4.557685 34.091792 4.443708
2006-09-06 05:22:37 51°14.845 2°53.184 18.6111 4.557685 34.091792 4.443708
2006-09-06 05:22:42 51°14.852 2°53.16 18.6201 4.566753 34.167779 4.409999
2006-09-06 05:22:46 51°14.858 2°53.139 18.6189 4.573713 34.226708 4.409999
2006-09-06 05:22:50 51°14.864 2°53.12 18.6134 4.573923 34.229072 4.409999
2006-09-06 05:22:57 51°14.875 2°53.085 18.622 4.57424 34.232319 4.409999
2006-09-06 05:23:00 51°14.88 2°53.07 18.6196 4.573713 34.229685 4.376289
2006-09-06 05:23:07 51°14.89 2°53.036 18.6147 4.573713 34.229685 4.376289
2006-09-06 05:23:12 51°14.898 2°53.011 18.6158 4.573502 34.230895 4.409999
2006-09-06 05:23:17 51°14.905 2°52.987 18.6121 4.577509 34.264494 4.376289
2006-09-06 05:23:21 51°14.912 2°52.967 18.6214 4.573607 34.231779 4.376289
2006-09-06 05:23:27 51°14.921 2°52.937 18.6159 4.543029 33.975532 4.409999
2006-09-06 05:23:31 51°14.927 2°52.917 18.609 4.572236 34.219095 4.376289
2006-09-06 05:23:36 51°14.934 2°52.892 18.6096 4.572236 34.219095 4.376289
2006-09-06 05:23:41 51°14.941 2°52.867 18.6106 4.562852 34.141022 4.409999
2006-09-06 05:23:47 51°14.95 2°52.837 18.6114 4.577825 34.268935 4.376289
2006-09-06 05:23:51 51°14.956 2°52.817 18.6076 4.570866 34.211173 4.409999
2006-09-06 05:23:57 51°14.965 2°52.787 18.6077 4.575822 34.25273 4.34258
2006-09-06 05:24:02 51°14.972 2°52.763 18.6105 4.581305 34.298717 4.34258
2006-09-06 05:24:07 51°14.98 2°52.737 18.6069 4.581305 34.298717 4.34258
2006-09-06 05:24:12 51°14.988 2°52.713 18.6082 4.578669 34.277799 4.308871
2006-09-06 05:24:17 51°14.995 2°52.688 18.6063 4.564012 34.156686 4.376289
2006-09-06 05:24:21 51°15.002 2°52.668 18.6079 4.563801 34.155512 4.376289
2006-09-06 05:24:26 51°15.009 2°52.643 18.6042 4.552308 34.06096 4.409999
2006-09-06 05:24:32 51°15.018 2°52.613 18.6076 4.581832 34.308512 4.376289
2006-09-06 05:24:37 51°15.025 2°52.587 18.6054 4.581832 34.308512 4.376289
2006-09-06 05:24:41 51°15.031 2°52.567 18.6049 4.564539 34.163483 4.409999
2006-09-06 05:24:46 51°15.039 2°52.542 18.6085 4.582043 34.310878 4.376289
2006-09-06 05:24:51 51°15.046 2°52.517 18.6083 4.579723 34.291417 4.376289
2006-09-06 05:24:57 51°15.056 2°52.487 18.6073 4.560954 34.13521 4.376289
2006-09-06 05:25:01 51°15.062 2°52.468 18.6071 4.574556 34.24927 4.376289
2006-09-06 05:25:07 51°15.071 2°52.438 18.6071 4.574556 34.24927 4.376289
2006-09-06 05:25:12 51°15.08 2°52.413 18.6061 4.58489 34.336558 4.409999
2006-09-06 05:25:17 51°15.087 2°52.389 18.6037 4.584363 34.331536 4.409999
2006-09-06 05:25:21 51°15.094 2°52.369 18.6012 4.584468 34.331226 4.409999
2006-09-06 05:25:27 51°15.103 2°52.34 18.604 4.583836 34.325918 4.376289
2006-09-06 05:25:31 51°15.11 2°52.32 18.6019 4.584046 34.328284 4.376289
2006-09-06 05:25:37 51°15.119 2°52.29 18.6029 4.584046 34.328284 4.376289
2006-09-06 05:25:42 51°15.127 2°52.266 18.6019 4.58489 34.336558 4.376289
2006-09-06 05:25:47 51°15.135 2°52.241 18.598 4.584995 34.33804 4.376289
2006-09-06 05:25:52 51°15.144 2°52.216 18.6035 4.584995 34.338638 4.409999
2006-09-06 05:25:57 51°15.152 2°52.192 18.5925 4.584574 34.335696 4.409999
2006-09-06 05:26:01 51°15.159 2°52.172 18.5894 4.585101 34.341316 4.34258
2006-09-06 05:26:07 51°15.168 2°52.143 18.5909 4.585101 34.341316 4.34258
2006-09-06 05:26:12 51°15.177 2°52.118 18.5877 4.58489 34.339546 4.34258
2006-09-06 05:26:17 51°15.185 2°52.094 18.5894 4.582043 34.316851 4.34258
2006-09-06 05:26:21 51°15.191 2°52.074 18.5803 4.584679 34.340167 4.34258
2006-09-06 05:26:27 51°15.201 2°52.044 18.5782 4.580989 34.311586 4.34258
2006-09-06 05:26:32 51°15.209 2°52.019 18.577 4.583519 34.335813 4.34258
2006-09-06 05:26:37 51°15.217 2°51.994 18.5806 4.583519 34.335813 4.34258
2006-09-06 05:26:41 51°15.223 2°51.974 18.5693 4.578036 34.290394 4.34258
2006-09-06 05:26:47 51°15.233 2°51.944 18.5681 4.583625 34.339089 4.376289
2006-09-06 05:26:52 51°15.241 2°51.919 18.57 4.580251 34.312561 4.308871
2006-09-06 05:26:57 51°15.249 2°51.894 18.5697 4.583309 34.34062 4.308871
2006-09-06 05:27:02 51°15.257 2°51.869 18.5695 4.580883 34.325044 4.34258
2006-09-06 05:27:07 51°15.264 2°51.844 18.5605 4.580883 34.325044 4.34258
2006-09-06 05:27:12 51°15.272 2°51.819 18.5589 4.580778 34.324757 4.308871
2006-09-06 05:27:17 51°15.279 2°51.794 18.5543 4.578775 34.310328 4.34258
2006-09-06 05:27:21 51°15.284 2°51.772 18.5522 4.579302 34.317744 4.34258
2006-09-06 05:27:27 51°15.29 2°51.74 18.5506 4.580884 34.331622 4.34258
2006-09-06 05:27:32 51°15.295 2°51.712 18.5544 4.581305 34.335762 4.308871
2006-09-06 05:27:37 51°15.299 2°51.685 18.548 4.581305 34.335762 4.308871
2006-09-06 05:27:42 51°15.304 2°51.657 18.5476 4.580356 34.329587 4.275161
2006-09-06 05:27:47 51°15.307 2°51.629 18.5458 4.578564 34.319319 4.275161
2006-09-06 05:27:51 51°15.309 2°51.607 18.5455 4.580357 34.338562 4.275161
2006-09-06 05:27:57 51°15.312 2°51.572 18.5398 4.579197 34.331812 4.275161
2006-09-06 05:28:01 51°15.313 2°51.549 18.5382 4.571288 34.266587 4.241452
2006-09-06 05:28:07 51°15.315 2°51.515 18.5425 4.571288 34.266587 4.241452
2006-09-06 05:28:12 51°15.316 2°51.486 18.5373 4.578142 34.326545 4.275161
2006-09-06 05:28:17 51°15.317 2°51.457 18.5351 4.578142 34.327742 4.275161
2006-09-06 05:28:21 51°15.318 2°51.434 18.5328 4.578353 34.33071 4.275161
2006-09-06 05:28:27 51°15.319 2°51.4 18.5331 4.578986 34.33842 4.275161
2006-09-06 05:28:31 51°15.319 2°51.377 18.5327 4.578775 34.339043 4.275161
2006-09-06 05:28:37 51°15.321 2°51.342 18.5268 4.578775 34.339043 4.275161
2006-09-06 05:28:42 51°15.322 2°51.313 18.532 4.579935 34.349987 4.275161
2006-09-06 05:28:47 51°15.324 2°51.285 18.5264 4.578248 34.337008 4.241452
2006-09-06 05:28:52 51°15.326 2°51.256 18.5218 4.579724 34.351809 4.241452
2006-09-06 05:28:56 51°15.327 2°51.233 18.5276 4.579197 34.347978 4.241452
2006-09-06 05:29:01 51°15.329 2°51.204 18.5283 4.580357 34.359523 4.241452
2006-09-06 05:29:07 51°15.333 2°51.17 18.5204 4.580357 34.359523 4.241452
2006-09-06 05:29:11 51°15.335 2°51.147 18.5236 4.578986 34.350399 4.207742
2006-09-06 05:29:17 51°15.339 2°51.113 18.5186 4.554945 34.148427 4.241452
2006-09-06 05:29:20 51°15.341 2°51.096 18.5139 4.580673 34.366378 4.241452
2006-09-06 05:29:25 51°15.345 2°51.067 18.5185 4.579513 34.357228 4.207742
2006-09-06 05:29:32 51°15.35 2°51.028 18.5132 4.575401 34.323262 4.241452
2006-09-06 05:29:37 51°15.353 2°50.999 18.5085 4.575401 34.323262 4.241452
2006-09-06 05:29:42 51°15.357 2°50.971 18.5073 4.581095 34.371722 4.241452
2006-09-06 05:29:47 51°15.36 2°50.943 18.5045 4.580884 34.372348 4.207742
2006-09-06 05:29:52 51°15.363 2°50.914 18.5027 4.580568 34.370288 4.207742
2006-09-06 05:29:57 51°15.366 2°50.886 18.5013 4.579197 34.362362 4.241452
2006-09-06 05:30:01 51°15.368 2°50.862 18.4998 4.579303 34.363248 4.241452
2006-09-06 05:30:07 51°15.371 2°50.827 18.4976 4.579303 34.363248 4.241452
2006-09-06 05:30:11 51°15.372 2°50.804 18.4964 4.580041 34.372453 4.207742
2006-09-06 05:30:17 51°15.375 2°50.769 18.4922 4.580463 34.377799 4.207742
2006-09-06 05:30:21 51°15.376 2°50.746 18.4928 4.580779 34.38406 4.207742
2006-09-06 05:30:27 51°15.378 2°50.711 18.4861 4.580357 34.383514 4.174033
2006-09-06 05:30:30 51°15.379 2°50.694 18.4842 4.580674 34.387975 4.174033
2006-09-06 05:30:37 51°15.382 2°50.653 18.485 4.580674 34.387975 4.174033
2006-09-06 05:30:42 51°15.385 2°50.625 18.4796 4.57034 34.302271 4.174033
2006-09-06 05:30:47 51°15.387 2°50.596 18.4797 4.580568 34.390691 4.207742
2006-09-06 05:30:52 51°15.389 2°50.567 18.48 4.576562 34.358786 4.207742
2006-09-06 05:30:57 51°15.391 2°50.538 18.4783 4.580252 34.392834 4.207742
2006-09-06 05:31:00 51°15.393 2°50.521 18.4776 4.580463 34.397611 4.174033
2006-09-06 05:31:07 51°15.396 2°50.481 18.477 4.580463 34.397611 4.174033
2006-09-06 05:31:12 51°15.399 2°50.452 18.4724 4.580779 34.401475 4.174033
2006-09-06 05:31:17 51°15.401 2°50.423 18.4749 4.580463 34.402418 4.207742
2006-09-06 05:31:21 51°15.403 2°50.4 18.4714 4.581518 34.411292 4.207742
2006-09-06 05:31:27 51°15.405 2°50.366 18.4706 4.581307 34.410118 4.207742
2006-09-06 05:31:32 51°15.408 2°50.337 18.4701 4.580358 34.403935 4.207742
2006-09-06 05:31:37 51°15.41 2°50.309 18.4742 4.580358 34.403935 4.207742
2006-09-06 05:31:40 51°15.412 2°50.292 18.4749 4.578987 34.3936 4.207742
2006-09-06 05:31:47 51°15.416 2°50.252 18.4744 4.581201 34.412838 4.207742
2006-09-06 05:31:52 51°15.42 2°50.223 18.4732 4.580674 34.410204 4.241452
2006-09-06 05:31:57 51°15.423 2°50.195 18.469 4.581307 34.416731 4.207742
2006-09-06 05:32:01 51°15.426 2°50.172 18.4702 4.581834 34.421771 4.241452
2006-09-06 05:32:07 51°15.429 2°50.138 18.4697 4.581834 34.421771 4.241452
2006-09-06 05:32:12 51°15.433 2°50.11 18.4675 4.58194 34.423861 4.241452
2006-09-06 05:32:17 51°15.436 2°50.082 18.4669 4.581307 34.417333 4.207742
2006-09-06 05:32:22 51°15.44 2°50.053 18.4656 4.581834 34.420568 4.207742
2006-09-06 05:32:27 51°15.443 2°50.025 18.464 4.576667 34.378883 4.241452
2006-09-06 05:32:32 51°15.447 2°49.997 18.4667 4.581623 34.4218 4.241452
2006-09-06 05:32:37 51°15.45 2°49.969 18.467 4.581623 34.4218 4.241452
2006-09-06 05:32:40 51°15.452 2°49.952 18.4664 4.582361 34.428615 4.241452
2006-09-06 05:32:47 51°15.457 2°49.912 18.462 4.580991 34.418278 4.241452
2006-09-06 05:32:51 51°15.46 2°49.89 18.4611 4.581201 34.420655 4.241452
2006-09-06 05:32:57 51°15.464 2°49.856 18.4623 4.569708 34.325118 4.241452
2006-09-06 05:33:02 51°15.467 2°49.827 18.4664 4.577511 34.391391 4.241452
2006-09-06 05:33:07 51°15.471 2°49.799 18.4639 4.577511 34.391391 4.241452
2006-09-06 05:33:11 51°15.475 2°49.777 18.4608 4.582678 34.434889 4.207742
2006-09-06 05:33:17 51°15.481 2°49.744 18.4606 4.570024 34.328979 4.241452
2006-09-06 05:33:22 51°15.486 2°49.717 18.4595 4.571079 34.338453 4.241452
2006-09-06 05:33:27 51°15.491 2°49.689 18.4561 4.582151 34.433458 4.241452
2006-09-06 05:33:32 51°15.497 2°49.662 18.4518 4.582151 34.43406 4.241452
2006-09-06 05:33:36 51°15.502 2°49.641 18.4541 4.582151 34.43406 4.241452
2006-09-06 05:33:41 51°15.508 2°49.614 18.4509 4.581202 34.424866 4.241452
2006-09-06 05:33:47 51°15.514 2°49.581 18.4535 4.582256 34.433745 4.241452
2006-09-06 05:33:51 51°15.517 2°49.559 18.452 4.580885 34.424008 4.275161
2006-09-06 05:33:57 51°15.523 2°49.525 18.4527 4.580358 34.420772 4.241452
2006-09-06 05:34:01 51°15.526 2°49.503 18.4479 4.581623 34.433834 4.275161
2006-09-06 05:34:07 51°15.531 2°49.47 18.4469 4.581623 34.433834 4.275161
2006-09-06 05:34:12 51°15.536 2°49.442 18.4517 4.581096 34.431802 4.275161
2006-09-06 05:34:17 51°15.54 2°49.414 18.4514 4.581624 34.437446 4.275161
2006-09-06 05:34:21 51°15.543 2°49.392 18.4545 4.580991 34.433322 4.275161
2006-09-06 05:34:27 51°15.549 2°49.359 18.4544 4.581624 34.438048 4.241452
2006-09-06 05:34:31 51°15.553 2°49.337 18.46 4.582045 34.441601 4.275161
2006-09-06 05:34:36 51°15.558 2°49.31 18.4582 4.582045 34.441601 4.275161
2006-09-06 05:34:40 51°15.563 2°49.288 18.4596 4.581729 34.440743 4.275161
2006-09-06 05:34:47 51°15.571 2°49.251 18.4641 4.581624 34.439855 4.241452
2006-09-06 05:34:52 51°15.577 2°49.224 18.4676 4.580885 34.433036 4.241452
2006-09-06 05:34:57 51°15.583 2°49.197 18.4727 4.580885 34.432434 4.275161
2006-09-06 05:35:00 51°15.586 2°49.181 18.4781 4.582362 34.443663 4.241452
2006-09-06 05:35:07 51°15.594 2°49.144 18.479 4.582362 34.443663 4.241452
2006-09-06 05:35:11 51°15.599 2°49.123 18.482 4.580358 34.425586 4.207742
2006-09-06 05:35:17 51°15.606 2°49.091 18.4834 4.573293 34.364297 4.207742
2006-09-06 05:35:22 51°15.611 2°49.064 18.4867 4.584365 34.454513 4.207742
2006-09-06 05:35:27 51°15.617 2°49.038 18.4904 4.584259 34.450012 4.207742
2006-09-06 05:35:32 51°15.623 2°49.011 18.4901 4.585736 34.459431 4.207742
2006-09-06 05:35:37 51°15.627 2°48.985 18.4932 4.585736 34.459431 4.207742
2006-09-06 05:35:41 51°15.631 2°48.963 18.4958 4.583838 34.440441 4.207742
2006-09-06 05:35:47 51°15.636 2°48.93 18.4983 4.584576 34.442442 4.140324
2006-09-06 05:35:52 51°15.641 2°48.904 18.4974 4.582888 34.426436 4.140324
2006-09-06 05:35:57 51°15.645 2°48.876 18.4987 4.587739 34.464858 4.106614
2006-09-06 05:36:01 51°15.649 2°48.855 18.5011 4.58911 34.474591 4.106614
2006-09-06 05:36:07 51°15.654 2°48.822 18.5065 4.58911 34.474591 4.106614
2006-09-06 05:36:12 51°15.658 2°48.795 18.5067 4.58911 34.472182 4.106614
2006-09-06 05:36:17 51°15.662 2°48.768 18.5077 4.589531 34.474528 4.072905
2006-09-06 05:36:22 51°15.666 2°48.741 18.5083 4.590269 34.47773 4.072905
2006-09-06 05:36:27 51°15.672 2°48.714 18.507 4.590375 34.478015 4.072905
2006-09-06 05:36:32 51°15.677 2°48.687 18.509 4.590586 34.477984 4.072905
2006-09-06 05:36:37 51°15.682 2°48.66 18.5114 4.590586 34.477984 4.072905
2006-09-06 05:36:41 51°15.687 2°48.639 18.514 4.592062 34.488602 4.039195
2006-09-06 05:36:47 51°15.693 2°48.607 18.5142 4.589109 34.460144 4.005486
2006-09-06 05:36:52 51°15.699 2°48.58 18.5167 4.593011 34.492373 4.005486
2006-09-06 05:36:57 51°15.704 2°48.554 18.5211 4.592378 34.484038 3.971777
2006-09-06 05:37:02 51°15.71 2°48.527 18.5244 4.592484 34.484926 4.005486
2006-09-06 05:37:07 51°15.715 2°48.5 18.5251 4.592484 34.484926 4.005486
2006-09-06 05:37:11 51°15.72 2°48.478 18.5289 4.594276 34.499408 3.971777
2006-09-06 05:37:17 51°15.726 2°48.446 18.5298 4.593643 34.492879 3.971777
2006-09-06 05:37:21 51°15.73 2°48.424 18.5311 4.594276 34.496999 3.971777
2006-09-06 05:37:27 51°15.736 2°48.391 18.5354 4.593643 34.489267 3.971777
2006-09-06 05:37:31 51°15.74 2°48.369 18.5308 4.594487 34.493354 3.971777
2006-09-06 05:37:36 51°15.745 2°48.342 18.5313 4.594487 34.493354 3.971777
2006-09-06 05:37:42 51°15.751 2°48.309 18.5321 4.59396 34.486511 3.971777
2006-09-06 05:37:47 51°15.757 2°48.282 18.5351 4.59512 34.493861 3.938067
2006-09-06 05:37:52 51°15.762 2°48.255 18.5328 4.595752 34.497979 3.938067
2006-09-06 05:37:56 51°15.766 2°48.233 18.5318 4.596385 34.502097 3.971777
2006-09-06 05:38:02 51°15.772 2°48.2 18.5296 4.590796 34.452687 3.971777
2006-09-06 05:38:07 51°15.777 2°48.173 18.5338 4.590796 34.452687 3.971777
2006-09-06 05:38:12 51°15.782 2°48.145 18.5327 4.596912 34.50292 3.938067
2006-09-06 05:38:16 51°15.786 2°48.123 18.5323 4.596385 34.498486 3.971777
2006-09-06 05:38:21 51°15.791 2°48.095 18.5329 4.597017 34.503205 3.938067
2006-09-06 05:38:27 51°15.797 2°48.062 18.5306 4.596385 34.497282 3.904358
2006-09-06 05:38:32 51°15.802 2°48.035 18.5297 4.597228 34.504979 3.938067
2006-09-06 05:38:37 51°15.807 2°48.007 18.5285 4.597228 34.504979 3.938067
2006-09-06 05:38:42 51°15.812 2°47.98 18.5281 4.59533 34.489617 3.904358
2006-09-06 05:38:47 51°15.817 2°47.952 18.5277 4.596807 34.501431 3.904358
2006-09-06 05:38:52 51°15.822 2°47.924 18.5268 4.59649 34.499373 3.904358
2006-09-06 05:38:56 51°15.826 2°47.902 18.5265 4.597439 34.507355 3.904358
2006-09-06 05:39:02 51°15.831 2°47.869 18.5286 4.594698 34.484897 3.904358
2006-09-06 05:39:07 51°15.836 2°47.841 18.5259 4.594698 34.484897 3.904358
2006-09-06 05:39:12 51°15.841 2°47.813 18.5316 4.597334 34.50707 3.870648
2006-09-06 05:39:17 51°15.846 2°47.785 18.5315 4.59765 34.510935 3.870648
2006-09-06 05:39:21 51°15.85 2°47.763 18.5333 4.597228 34.508591 3.870648
2006-09-06 05:39:27 51°15.856 2°47.73 18.5361 4.598072 34.51629 3.870648
2006-09-06 05:39:32 51°15.861 2°47.702 18.5356 4.59881 34.523101 3.870648
2006-09-06 05:39:37 51°15.865 2°47.674 18.5363 4.59881 34.523101 3.870648
2006-09-06 05:39:41 51°15.868 2°47.651 18.539 4.59765 34.513344 3.870648
2006-09-06 05:39:47 51°15.872 2°47.617 18.5452 4.597861 34.513311 3.836939
2006-09-06 05:39:51 51°15.875 2°47.594 18.5441 4.599232 34.523638 3.836939
2006-09-06 05:39:57 51°15.878 2°47.56 18.545 4.599337 34.52332 3.836939
2006-09-06 05:40:01 51°15.879 2°47.537 18.5453 4.593221 34.470076 3.836939
2006-09-06 05:40:07 51°15.878 2°47.503 18.5467 4.593221 34.470076 3.836939
2006-09-06 05:40:10 51°15.877 2°47.485 18.5488 4.60113 34.53599 3.870648
2006-09-06 05:40:17 51°15.874 2°47.445 18.5493 4.600181 34.5262 3.836939
2006-09-06 05:40:21 51°15.871 2°47.423 18.5507 4.601446 34.534433 3.836939
2006-09-06 05:40:27 51°15.865 2°47.39 18.5504 4.602711 34.543269 3.870648
2006-09-06 05:40:32 51°15.859 2°47.363 18.5529 4.602606 34.542382 3.870648
2006-09-06 05:40:37 51°15.852 2°47.336 18.5553 4.602606 34.542382 3.870648
2006-09-06 05:40:41 51°15.847 2°47.314 18.5577 4.603555 34.549159 3.836939
2006-09-06 05:40:47 51°15.838 2°47.282 18.5646 4.599443 34.512767 3.870648
2006-09-06 05:40:52 51°15.833 2°47.254 18.5649 4.603871 34.549409 3.836939
2006-09-06 05:40:57 51°15.828 2°47.226 18.5659 4.604082 34.549978 3.870648
2006-09-06 05:41:01 51°15.825 2°47.203 18.5707 4.603766 34.54551 3.870648
2006-09-06 05:41:07 51°15.821 2°47.168 18.5688 4.603766 34.54551 3.870648
2006-09-06 05:41:12 51°15.819 2°47.139 18.5699 4.604082 34.546966 3.836939
2006-09-06 05:41:17 51°15.819 2°47.111 18.5705 4.602184 34.528597 3.836939
2006-09-06 05:41:21 51°15.818 2°47.087 18.5756 4.603344 34.534737 3.870648
2006-09-06 05:41:27 51°15.819 2°47.052 18.5738 4.604715 34.543251 3.870648
2006-09-06 05:41:32 51°15.822 2°47.024 18.5733 4.605453 34.54765 3.836939
2006-09-06 05:41:37 51°15.824 2°46.995 18.571 4.605453 34.54765 3.836939
2006-09-06 05:41:42 51°15.828 2°46.967 18.5736 4.605664 34.547617 3.836939
2006-09-06 05:41:47 51°15.833 2°46.939 18.571 4.605664 34.546413 3.836939
2006-09-06 05:41:50 51°15.836 2°46.923 18.5744 4.600075 34.497634 3.836939
2006-09-06 05:41:57 51°15.843 2°46.884 18.5719 4.605242 34.539857 3.80323
2006-09-06 05:42:00 51°15.846 2°46.868 18.5709 4.605347 34.538938 3.836939
2006-09-06 05:42:07 51°15.855 2°46.83 18.5697 4.605347 34.538938 3.836939
2006-09-06 05:42:12 51°15.862 2°46.804 18.5728 4.605558 34.542516 3.836939
2006-09-06 05:42:17 51°15.869 2°46.778 18.5727 4.605453 34.540426 3.836939
2006-09-06 05:42:21 51°15.876 2°46.757 18.574 4.60482 34.536914 3.836939
2006-09-06 05:42:27 51°15.886 2°46.728 18.5703 4.605453 34.540426 3.836939
2006-09-06 05:42:32 51°15.895 2°46.703 18.5694 4.606085 34.545744 3.80323
2006-09-06 05:42:36 51°15.902 2°46.684 18.5732 4.606085 34.545744 3.80323
2006-09-06 05:42:41 51°15.911 2°46.66 18.572 4.604293 34.53188 3.80323
2006-09-06 05:42:47 51°15.922 2°46.631 18.5726 4.605136 34.538971 3.836939
2006-09-06 05:42:52 51°15.931 2°46.606 18.5709 4.605347 34.540142 3.836939
2006-09-06 05:42:57 51°15.94 2°46.582 18.57 4.605347 34.540743 3.80323
2006-09-06 05:43:02 51°15.949 2°46.558 18.5724 4.604398 34.532767 3.80323
2006-09-06 05:43:07 51°15.958 2°46.534 18.5689 4.604398 34.532767 3.80323
2006-09-06 05:43:12 51°15.967 2°46.51 18.5672 4.599864 34.49526 3.80323
2006-09-06 05:43:17 51°15.977 2°46.487 18.57 4.604609 34.534539 3.80323
2006-09-06 05:43:21 51°15.984 2°46.468 18.568 4.603976 34.52862 3.76952
2006-09-06 05:43:27 51°15.996 2°46.44 18.5623 4.60482 34.536914 3.76952
2006-09-06 05:43:32 51°16.005 2°46.417 18.561 4.603976 34.529221 3.76952
2006-09-06 05:43:37 51°16.015 2°46.394 18.5618 4.603976 34.529221 3.76952
2006-09-06 05:43:42 51°16.024 2°46.371 18.5574 4.603765 34.528051 3.76952
2006-09-06 05:43:47 51°16.034 2°46.347 18.5569 4.603976 34.531629 3.76952
2006-09-06 05:43:52 51°16.043 2°46.324 18.5547 4.603871 34.531344 3.76952
2006-09-06 05:43:57 51°16.052 2°46.3 18.5522 4.603976 34.53223 3.76952
2006-09-06 05:44:01 51°16.059 2°46.281 18.557 4.603555 34.531694 3.735811
2006-09-06 05:44:05 51°16.066 2°46.262 18.5502 4.603555 34.531694 3.735811
2006-09-06 05:44:11 51°16.077 2°46.234 18.5501 4.603555 34.5335 3.735811
2006-09-06 05:44:16 51°16.085 2°46.21 18.5509 4.603555 34.535306 3.735811
2006-09-06 05:44:22 51°16.095 2°46.181 18.5477 4.602395 34.526758 3.735811
2006-09-06 05:44:27 51°16.103 2°46.157 18.5487 4.603344 34.537145 3.735811
2006-09-06 05:44:32 51°16.111 2°46.132 18.5468 4.602395 34.529166 3.76952
2006-09-06 05:44:37 51°16.118 2°46.108 18.5462 4.602395 34.529166 3.76952
2006-09-06 05:44:41 51°16.125 2°46.088 18.5471 4.602079 34.52771 3.735811
2006-09-06 05:44:47 51°16.134 2°46.06 18.5493 4.602606 34.532745 3.735811
2006-09-06 05:44:51 51°16.141 2°46.04 18.5467 4.602606 34.535154 3.735811
2006-09-06 05:44:57 51°16.15 2°46.011 18.5417 4.601973 34.530436 3.735811
2006-09-06 05:45:01 51°16.156 2°45.992 18.5445 4.601657 34.528378 3.76952
2006-09-06 05:45:07 51°16.165 2°45.963 18.5456 4.601657 34.528378 3.76952
2006-09-06 05:45:12 51°16.173 2°45.938 18.5456 4.601551 34.529298 3.735811
2006-09-06 05:45:17 51°16.181 2°45.914 18.5459 4.601551 34.529298 3.735811
2006-09-06 05:45:21 51°16.186 2°45.894 18.547 4.602184 34.53522 3.76952
2006-09-06 05:45:27 51°16.196 2°45.865 18.5446 4.601762 34.531673 3.76952
2006-09-06 05:45:32 51°16.203 2°45.841 18.5465 4.60113 34.527557 3.76952
2006-09-06 05:45:37 51°16.211 2°45.817 18.5428 4.60113 34.527557 3.76952
2006-09-06 05:45:42 51°16.218 2°45.793 18.545 4.601551 34.531706 3.735811
2006-09-06 05:45:47 51°16.226 2°45.769 18.5446 4.60113 34.527557 3.735811
2006-09-06 05:45:52 51°16.233 2°45.745 18.5486 4.600286 34.519259 3.76952
2006-09-06 05:45:57 51°16.241 2°45.721 18.5484 4.600919 34.524579 3.735811
2006-09-06 05:46:01 51°16.248 2°45.703 18.5539 4.601235 34.527842 3.76952
2006-09-06 05:46:07 51°16.258 2°45.675 18.5486 4.601235 34.527842 3.76952
2006-09-06 05:46:11 51°16.265 2°45.657 18.5523 4.600919 34.524579 3.735811
2006-09-06 05:46:17 51°16.275 2°45.629 18.5525 4.599337 34.511881 3.76952
2006-09-06 05:46:21 51°16.282 2°45.61 18.5479 4.600813 34.525499 3.735811
2006-09-06 05:46:27 51°16.292 2°45.582 18.5503 4.601024 34.525466 3.735811
2006-09-06 05:46:32 51°16.3 2°45.558 18.55 4.601235 34.526035 3.76952
2006-09-06 05:46:37 51°16.308 2°45.534 18.5507 4.601235 34.526035 3.76952
2006-09-06 05:46:42 51°16.316 2°45.51 18.552 4.601341 34.525116 3.735811
2006-09-06 05:46:47 51°16.323 2°45.487 18.5527 4.601024 34.521854 3.735811
2006-09-06 05:46:51 51°16.329 2°45.468 18.5532 4.599759 34.511816 3.76952
2006-09-06 05:46:57 51°16.338 2°45.439 18.5556 4.600813 34.521284 3.735811
2006-09-06 05:47:02 51°16.345 2°45.415 18.5558 4.599653 34.511531 3.702101
2006-09-06 05:47:07 51°16.352 2°45.391 18.554 4.599653 34.511531 3.702101
2006-09-06 05:47:12 51°16.359 2°45.367 18.5556 4.600075 34.51568 3.702101
2006-09-06 05:47:17 51°16.367 2°45.343 18.5565 4.601446 34.5254 3.735811
2006-09-06 05:47:21 51°16.372 2°45.324 18.5566 4.60113 34.522139 3.735811
2006-09-06 05:47:27 51°16.381 2°45.294 18.5559 4.600602 34.517104 3.735811
2006-09-06 05:47:32 51°16.389 2°45.27 18.556 4.600391 34.514729 3.735811
2006-09-06 05:47:37 51°16.396 2°45.246 18.5558 4.600391 34.514729 3.735811
2006-09-06 05:47:41 51°16.403 2°45.227 18.557 4.598915 34.501114 3.735811
2006-09-06 05:47:47 51°16.412 2°45.198 18.5588 4.600708 34.516786 3.735811
2006-09-06 05:47:52 51°16.419 2°45.174 18.5581 4.59997 34.509979 3.702101
2006-09-06 05:47:57 51°16.427 2°45.15 18.5606 4.600391 34.512923 3.702101
2006-09-06 05:48:00 51°16.431 2°45.135 18.5587 4.59997 34.508174 3.735811
2006-09-06 05:48:07 51°16.442 2°45.102 18.5597 4.59997 34.508174 3.735811
2006-09-06 05:48:12 51°16.449 2°45.078 18.5576 4.59997 34.508174 3.735811
2006-09-06 05:48:17 51°16.457 2°45.053 18.5596 4.600497 34.512606 3.735811
2006-09-06 05:48:21 51°16.463 2°45.034 18.5575 4.60018 34.509947 3.735811
2006-09-06 05:48:27 51°16.473 2°45.005 18.5578 4.600075 34.508459 3.702101
2006-09-06 05:48:32 51°16.48 2°44.981 18.558 4.599548 34.503425 3.702101
2006-09-06 05:48:37 51°16.487 2°44.956 18.5581 4.599548 34.503425 3.702101
2006-09-06 05:48:41 51°16.493 2°44.937 18.5572 4.59881 34.496619 3.735811
2006-09-06 05:48:47 51°16.502 2°44.908 18.5591 4.60018 34.508142 3.735811
2006-09-06 05:48:51 51°16.508 2°44.889 18.5572 4.599337 34.501652 3.735811
2006-09-06 05:48:57 51°16.517 2°44.859 18.5584 4.599548 34.503425 3.702101
2006-09-06 05:49:02 51°16.524 2°44.835 18.5566 4.599548 34.502824 3.702101
2006-09-06 05:49:07 51°16.532 2°44.811 18.5602 4.599548 34.502824 3.702101
2006-09-06 05:49:12 51°16.54 2°44.787 18.5569 4.598915 34.498708 3.735811
2006-09-06 05:49:17 51°16.547 2°44.763 18.5588 4.598599 34.496049 3.735811
2006-09-06 05:49:21 51°16.554 2°44.745 18.5598 4.600075 34.507857 3.735811
2006-09-06 05:49:27 51°16.563 2°44.716 18.5574 4.598599 34.496049 3.735811
2006-09-06 05:49:32 51°16.571 2°44.692 18.5616 4.60018 34.508744 3.735811
2006-09-06 05:49:37 51°16.579 2°44.667 18.5564 4.60018 34.508744 3.735811
2006-09-06 05:49:41 51°16.585 2°44.648 18.5555 4.60018 34.508142 3.702101
2006-09-06 05:49:47 51°16.594 2°44.619 18.5567 4.597966 34.490129 3.735811
2006-09-06 05:49:52 51°16.602 2°44.594 18.5569 4.600286 34.509029 3.735811
2006-09-06 05:49:56 51°16.608 2°44.574 18.5554 4.599653 34.50371 3.702101
2006-09-06 05:50:00 51°16.614 2°44.555 18.5566 4.599864 34.505483 3.735811
2006-09-06 05:50:07 51°16.625 2°44.521 18.554 4.599864 34.505483 3.735811
2006-09-06 05:50:12 51°16.633 2°44.496 18.5552 4.600391 34.511118 3.735811
2006-09-06 05:50:17 51°16.64 2°44.472 18.5531 4.599759 34.506401 3.702101
2006-09-06 05:50:21 51°16.646 2°44.453 18.553 4.599653 34.505515 3.668392
2006-09-06 05:50:27 51°16.655 2°44.423 18.5529 4.599864 34.507889 3.735811
2006-09-06 05:50:32 51°16.663 2°44.398 18.5532 4.59997 34.508776 3.702101
2006-09-06 05:50:37 51°16.671 2°44.374 18.5546 4.59997 34.508776 3.702101
2006-09-06 05:50:42 51°16.678 2°44.349 18.5527 4.600497 34.51381 3.702101
2006-09-06 05:50:47 51°16.686 2°44.325 18.5543 4.600919 34.517958 3.702101
2006-09-06 05:50:51 51°16.692 2°44.305 18.5523 4.600075 34.511467 3.702101
2006-09-06 05:50:57 51°16.701 2°44.275 18.5526 4.60113 34.519731 3.702101
2006-09-06 05:51:02 51°16.709 2°44.25 18.5512 4.600708 34.516786 3.735811
2006-09-06 05:51:07 51°16.717 2°44.226 18.5504 4.600708 34.516786 3.735811
2006-09-06 05:51:12 51°16.725 2°44.202 18.5527 4.60134 34.522106 3.702101
2006-09-06 05:51:17 51°16.733 2°44.177 18.5533 4.600919 34.51856 3.702101
2006-09-06 05:51:21 51°16.74 2°44.158 18.5483 4.601024 34.520048 3.668392
2006-09-06 05:51:27 51°16.751 2°44.13 18.5451 4.599442 34.506148 3.702101
2006-09-06 05:51:32 51°16.76 2°44.108 18.5464 4.600919 34.519763 3.702101
2006-09-06 05:51:36 51°16.767 2°44.089 18.5442 4.600919 34.519763 3.702101
2006-09-06 05:51:42 51°16.778 2°44.061 18.5472 4.600813 34.519479 3.668392
2006-09-06 05:51:47 51°16.787 2°44.038 18.5432 4.600286 34.514444 3.668392
2006-09-06 05:51:52 51°16.796 2°44.015 18.546 4.60113 34.521537 3.668392
2006-09-06 05:51:57 51°16.805 2°43.991 18.5433 4.600181 34.515363 3.668392
2006-09-06 05:52:02 51°16.814 2°43.968 18.5406 4.600813 34.522488 3.668392
2006-09-06 05:52:07 51°16.823 2°43.944 18.5387 4.600813 34.522488 3.668392
2006-09-06 05:52:12 51°16.831 2°43.92 18.5385 4.601762 34.531071 3.702101
2006-09-06 05:52:16 51°16.838 2°43.902 18.5371 4.600708 34.522806 3.702101
2006-09-06 05:52:21 51°16.847 2°43.878 18.5383 4.601024 34.52667 3.668392
2006-09-06 05:52:27 51°16.857 2°43.849 18.5354 4.601551 34.531104 3.702101
2006-09-06 05:52:32 51°16.866 2°43.826 18.5378 4.601024 34.527875 3.702101
2006-09-06 05:52:37 51°16.875 2°43.802 18.5365 4.601024 34.527875 3.702101
2006-09-06 05:52:40 51°16.88 2°43.788 18.5367 4.602079 34.537948 3.702101
2006-09-06 05:52:47 51°16.892 2°43.754 18.5373 4.600286 34.524678 3.668392
2006-09-06 05:52:50 51°16.897 2°43.74 18.537 4.600181 34.524393 3.668392
2006-09-06 05:52:57 51°16.909 2°43.706 18.5364 4.59301 34.464696 3.702101
2006-09-06 05:53:02 51°16.918 2°43.682 18.5351 4.601341 34.534751 3.702101
2006-09-06 05:53:07 51°16.926 2°43.658 18.5331 4.601341 34.534751 3.702101
2006-09-06 05:53:11 51°16.932 2°43.638 18.5318 4.601973 34.540675 3.668392
2006-09-06 05:53:17 51°16.942 2°43.608 18.5303 4.602079 34.542767 3.668392
2006-09-06 05:53:22 51°16.95 2°43.583 18.5282 4.601235 34.535069 3.668392
2006-09-06 05:53:27 51°16.957 2°43.558 18.5286 4.602712 34.547487 3.668392
2006-09-06 05:53:32 51°16.965 2°43.533 18.5291 4.601446 34.537445 3.702101
2006-09-06 05:53:37 51°16.972 2°43.507 18.5276 4.601446 34.537445 3.702101
2006-09-06 05:53:42 51°16.979 2°43.482 18.5279 4.601341 34.537764 3.702101
2006-09-06 05:53:46 51°16.985 2°43.462 18.5268 4.602817 34.551387 3.702101
2006-09-06 05:53:52 51°16.994 2°43.432 18.53 4.602712 34.552309 3.668392
2006-09-06 05:53:57 51°17.001 2°43.406 18.5269 4.60113 34.540207 3.634683
2006-09-06 05:54:01 51°17.006 2°43.386 18.5242 4.602712 34.554117 3.668392
2006-09-06 05:54:07 51°17.015 2°43.355 18.5256 4.602712 34.554117 3.668392
2006-09-06 05:54:11 51°17.021 2°43.335 18.5281 4.603239 34.558553 3.668392
2006-09-06 05:54:16 51°17.029 2°43.31 18.525 4.60345 34.560328 3.634683
2006-09-06 05:54:21 51°17.037 2°43.285 18.5267 4.602817 34.555607 3.668392
2006-09-06 05:54:27 51°17.047 2°43.256 18.5246 4.603133 34.558269 3.668392
2006-09-06 05:54:32 51°17.055 2°43.232 18.5279 4.603872 34.565083 3.702101
2006-09-06 05:54:37 51°17.064 2°43.208 18.5286 4.603872 34.565083 3.702101
2006-09-06 05:54:41 51°17.071 2°43.189 18.5274 4.603872 34.566289 3.668392
2006-09-06 05:54:47 51°17.082 2°43.16 18.5258 4.604082 34.56746 3.668392
2006-09-06 05:54:52 51°17.091 2°43.137 18.5246 4.60461 34.571897 3.668392
2006-09-06 05:54:57 51°17.1 2°43.113 18.5259 4.604926 34.573955 3.668392
2006-09-06 05:55:01 51°17.107 2°43.094 18.5272 4.604188 34.568348 3.668392
2006-09-06 05:55:07 51°17.118 2°43.065 18.5249 4.604188 34.568348 3.668392
2006-09-06 05:55:11 51°17.125 2°43.046 18.5252 4.605137 34.57573 3.668392
2006-09-06 05:55:17 51°17.135 2°43.017 18.525 4.604188 34.567744 3.668392
2006-09-06 05:55:22 51°17.144 2°42.994 18.5237 4.60461 34.571294 3.634683
2006-09-06 05:55:27 51°17.153 2°42.97 18.522 4.604715 34.572784 3.668392
2006-09-06 05:55:31 51°17.16 2°42.95 18.5242 4.605348 34.578711 3.668392
2006-09-06 05:55:36 51°17.168 2°42.926 18.5227 4.605348 34.578711 3.668392
2006-09-06 05:55:41 51°17.176 2°42.901 18.5266 4.605559 34.579883 3.668392
2006-09-06 05:55:47 51°17.185 2°42.871 18.5244 4.605664 34.581977 3.668392
2006-09-06 05:55:52 51°17.194 2°42.847 18.5269 4.606191 34.587017 3.702101
2006-09-06 05:55:57 51°17.202 2°42.822 18.5279 4.605559 34.581693 3.668392
2006-09-06 05:56:01 51°17.209 2°42.804 18.5258 4.606297 34.589112 3.668392
2006-09-06 05:56:07 51°17.219 2°42.774 18.5261 4.606297 34.589112 3.668392
2006-09-06 05:56:11 51°17.226 2°42.756 18.5288 4.606613 34.59117 3.668392
2006-09-06 05:56:17 51°17.237 2°42.726 18.5279 4.606086 34.585526 3.702101
2006-09-06 05:56:21 51°17.244 2°42.707 18.5252 4.606508 34.589076 3.668392
2006-09-06 05:56:27 51°17.255 2°42.678 18.526 4.60693 34.592625 3.668392
2006-09-06 05:56:32 51°17.264 2°42.654 18.5277 4.606191 34.586414 3.668392
2006-09-06 05:56:37 51°17.273 2°42.629 18.5273 4.606191 34.586414 3.668392
2006-09-06 05:56:41 51°17.28 2°42.61 18.5237 4.606086 34.584923 3.668392
2006-09-06 05:56:47 51°17.29 2°42.58 18.5267 4.606613 34.588756 3.668392
2006-09-06 05:56:52 51°17.299 2°42.555 18.5252 4.60693 34.592022 3.668392
2006-09-06 05:56:57 51°17.307 2°42.53 18.5258 4.607457 34.597062 3.668392
2006-09-06 05:57:01 51°17.315 2°42.51 18.5264 4.607668 34.59763 3.668392
2006-09-06 05:57:07 51°17.325 2°42.48 18.5258 4.607668 34.59763 3.668392
2006-09-06 05:57:11 51°17.332 2°42.461 18.5236 4.608089 34.601783 3.668392
2006-09-06 05:57:16 51°17.341 2°42.436 18.5244 4.608089 34.601783 3.668392
2006-09-06 05:57:22 51°17.352 2°42.406 18.5247 4.607457 34.597062 3.668392
2006-09-06 05:57:27 51°17.36 2°42.382 18.527 4.607035 34.592909 3.668392
2006-09-06 05:57:32 51°17.369 2°42.357 18.5255 4.607984 34.600896 3.668392
2006-09-06 05:57:37 51°17.377 2°42.332 18.5256 4.607984 34.600896 3.668392
2006-09-06 05:57:41 51°17.384 2°42.312 18.5232 4.608195 34.602067 3.702101
2006-09-06 05:57:47 51°17.393 2°42.283 18.5227 4.6083 34.604162 3.668392
2006-09-06 05:57:51 51°17.4 2°42.263 18.5219 4.608195 34.60267 3.668392
2006-09-06 05:57:57 51°17.41 2°42.233 18.5207 4.608406 34.605653 3.668392
2006-09-06 05:58:00 51°17.415 2°42.218 18.5241 4.608406 34.605049 3.702101
2006-09-06 05:58:07 51°17.426 2°42.184 18.5213 4.608406 34.605049 3.702101
2006-09-06 05:58:12 51°17.434 2°42.158 18.5238 4.607562 34.597346 3.668392
2006-09-06 05:58:17 51°17.441 2°42.131 18.5215 4.608617 34.60622 3.702101
2006-09-06 05:58:20 51°17.446 2°42.116 18.5188 4.607879 34.60182 3.702101
2006-09-06 05:58:27 51°17.459 2°42.082 18.5187 4.608722 34.608919 3.702101
2006-09-06 05:58:32 51°17.467 2°42.057 18.5177 4.608406 34.606861 3.702101
2006-09-06 05:58:37 51°17.475 2°42.031 18.5143 4.608406 34.606861 3.702101
2006-09-06 05:58:41 51°17.481 2°42.011 18.5193 4.608617 34.608636 3.668392
2006-09-06 05:58:47 51°17.49 2°41.981 18.5123 4.608406 34.606861 3.702101
2006-09-06 05:58:51 51°17.497 2°41.96 18.5105 4.6083 34.606577 3.668392
2006-09-06 05:58:57 51°17.506 2°41.93 18.5077 4.608722 34.611336 3.702101
2006-09-06 05:59:01 51°17.513 2°41.91 18.5081 4.607879 34.604839 3.668392
2006-09-06 05:59:07 51°17.523 2°41.88 18.5061 4.607879 34.604839 3.668392
2006-09-06 05:59:12 51°17.531 2°41.855 18.5081 4.606402 34.594225 3.702101
2006-09-06 05:59:17 51°17.539 2°41.83 18.4997 4.608511 34.611977 3.702101
2006-09-06 05:59:21 51°17.545 2°41.81 18.5001 4.608195 34.61173 3.702101
2006-09-06 05:59:27 51°17.554 2°41.78 18.4969 4.607773 34.609388 3.702101
2006-09-06 05:59:32 51°17.562 2°41.755 18.4935 4.607984 34.612976 3.668392
2006-09-06 05:59:37 51°17.57 2°41.729 18.4918 4.607984 34.612976 3.668392
2006-09-06 05:59:41 51°17.576 2°41.709 18.4914 4.606719 34.604136 3.668392
2006-09-06 05:59:47 51°17.586 2°41.679 18.487 4.606508 34.602964 3.702101
2006-09-06 05:59:51 51°17.592 2°41.658 18.4826 4.607352 34.612484 3.735811
2006-09-06 05:59:57 51°17.601 2°41.628 18.4851 4.606508 34.607194 3.702101
2006-09-06 06:00:02 51°17.609 2°41.603 18.482 4.605981 34.605172 3.702101
2006-09-06 06:00:07 51°17.617 2°41.577 18.4813 4.605981 34.605172 3.702101
2006-09-06 06:00:12 51°17.624 2°41.551 18.4843 4.606086 34.609686 3.702101
2006-09-06 06:00:17 51°17.632 2°41.526 18.4787 4.606297 34.612671 3.702101
2006-09-06 06:00:22 51°17.639 2°41.501 18.4782 4.605665 34.609761 3.702101
2006-09-06 06:00:27 51°17.647 2°41.475 18.4751 4.605876 34.613955 3.735811
2006-09-06 06:00:31 51°17.653 2°41.454 18.4749 4.606192 34.619039 3.735811
2006-09-06 06:00:37 51°17.661 2°41.424 18.4737 4.606192 34.619039 3.735811
2006-09-06 06:00:41 51°17.666 2°41.403 18.4729 4.605559 34.614919 3.702101
2006-09-06 06:00:46 51°17.672 2°41.377 18.473 4.605876 34.617584 3.735811
2006-09-06 06:00:52 51°17.68 2°41.346 18.4742 4.606298 34.622952 3.735811
2006-09-06 06:00:57 51°17.687 2°41.319 18.4766 4.605243 34.615883 3.735811
2006-09-06 06:01:01 51°17.693 2°41.299 18.474 4.606087 34.62541 3.735811
2006-09-06 06:01:07 51°17.701 2°41.268 18.4767 4.606087 34.62541 3.735811
2006-09-06 06:01:12 51°17.709 2°41.243 18.4805 4.605243 34.619513 3.735811
2006-09-06 06:01:17 51°17.717 2°41.218 18.4804 4.586895 34.465584 3.76952
2006-09-06 06:01:22 51°17.725 2°41.193 18.4824 4.605876 34.626053 3.735811
2006-09-06 06:01:27 51°17.733 2°41.169 18.4865 4.605876 34.624843 3.76952
2006-09-06 06:01:32 51°17.741 2°41.144 18.4875 4.606192 34.626903 3.76952
2006-09-06 06:01:37 51°17.749 2°41.119 18.4915 4.606192 34.626903 3.76952
2006-09-06 06:01:42 51°17.757 2°41.094 18.4942 4.604821 34.615354 3.76952
2006-09-06 06:01:47 51°17.765 2°41.069 18.4964 4.607036 34.632801 3.76952
2006-09-06 06:01:51 51°17.771 2°41.049 18.5001 4.606508 34.626543 3.735811
2006-09-06 06:01:57 51°17.781 2°41.019 18.5023 4.606508 34.624728 3.76952
2006-09-06 06:02:01 51°17.787 2°40.999 18.5048 4.607563 34.631191 3.80323
2006-09-06 06:02:06 51°17.794 2°40.974 18.5062 4.607563 34.631191 3.80323
2006-09-06 06:02:11 51°17.802 2°40.948 18.5091 4.607985 34.632324 3.76952
2006-09-06 06:02:17 51°17.812 2°40.918 18.5107 4.607036 34.622516 3.80323
2006-09-06 06:02:22 51°17.82 2°40.894 18.5128 4.606825 34.618321 3.76952
2006-09-06 06:02:27 51°17.828 2°40.869 18.5152 4.608195 34.626842 3.76952
2006-09-06 06:02:31 51°17.835 2°40.849 18.5147 4.607668 34.619983 3.80323
2006-09-06 06:02:37 51°17.845 2°40.819 18.5179 4.607668 34.619983 3.80323
2006-09-06 06:02:42 51°17.854 2°40.795 18.519 4.609039 34.629108 3.76952
2006-09-06 06:02:47 51°17.863 2°40.772 18.5196 4.608828 34.624914 3.80323
2006-09-06 06:02:52 51°17.872 2°40.748 18.5202 4.608722 34.622817 3.76952
2006-09-06 06:02:57 51°17.881 2°40.723 18.5208 4.607773 34.611805 3.80323
2006-09-06 06:03:01 51°17.888 2°40.704 18.5208 4.610093 34.628918 3.80323
2006-09-06 06:03:07 51°17.899 2°40.675 18.5217 4.610093 34.628918 3.80323
2006-09-06 06:03:11 51°17.906 2°40.656 18.5206 4.609777 34.625046 3.76952
2006-09-06 06:03:17 51°17.916 2°40.626 18.5202 4.609355 34.620286 3.80323
2006-09-06 06:03:21 51°17.923 2°40.606 18.5208 4.60946 34.619965 3.76952
2006-09-06 06:03:27 51°17.934 2°40.577 18.5192 4.608511 34.610769 3.76952
2006-09-06 06:03:31 51°17.94 2°40.557 18.5213 4.60946 34.618153 3.76952
2006-09-06 06:03:36 51°17.949 2°40.533 18.5216 4.60946 34.618153 3.76952
2006-09-06 06:03:41 51°17.958 2°40.508 18.5182 4.6083 34.607785 3.80323
2006-09-06 06:03:47 51°17.969 2°40.479 18.5176 4.609355 34.617869 3.76952
2006-09-06 06:03:52 51°17.977 2°40.454 18.5177 4.608511 34.608956 3.80323
2006-09-06 06:03:57 51°17.986 2°40.429 18.5161 4.60946 34.617549 3.80323
2006-09-06 06:04:02 51°17.995 2°40.405 18.5139 4.608617 34.610448 3.80323
2006-09-06 06:04:07 51°18.004 2°40.38 18.5147 4.608617 34.610448 3.80323
2006-09-06 06:04:12 51°18.012 2°40.355 18.5168 4.608406 34.608673 3.80323
2006-09-06 06:04:17 51°18.02 2°40.329 18.5159 4.608722 34.612544 3.76952
2006-09-06 06:04:22 51°18.028 2°40.304 18.515 4.608511 34.611373 3.80323
2006-09-06 06:04:27 51°18.037 2°40.278 18.5141 4.606613 34.596 3.76952
2006-09-06 06:04:32 51°18.045 2°40.253 18.5125 4.607984 34.608143 3.76952
2006-09-06 06:04:37 51°18.053 2°40.227 18.5128 4.607984 34.608143 3.76952
2006-09-06 06:04:41 51°18.06 2°40.207 18.5139 4.607351 34.604025 3.76952
2006-09-06 06:04:46 51°18.069 2°40.183 18.5123 4.607562 34.605196 3.80323
2006-09-06 06:04:52 51°18.08 2°40.153 18.5112 4.607246 34.60193 3.76952
2006-09-06 06:04:57 51°18.089 2°40.129 18.5118 4.607562 34.6058 3.76952
2006-09-06 06:05:01 51°18.097 2°40.11 18.5102 4.606192 34.594865 3.76952
2006-09-06 06:05:06 51°18.106 2°40.086 18.5089 4.606192 34.594865 3.76952
2006-09-06 06:05:12 51°18.116 2°40.056 18.5088 4.606402 34.597849 3.76952
2006-09-06 06:05:17 51°18.125 2°40.032 18.5092 4.607035 34.60257 3.76952
2006-09-06 06:05:21 51°18.133 2°40.013 18.5056 4.606297 34.595753 3.76952
2006-09-06 06:05:27 51°18.143 2°39.983 18.5052 4.606824 34.602003 3.76952
2006-09-06 06:05:32 51°18.151 2°39.958 18.5032 4.605453 34.591068 3.76952